<?xml version="1.0" encoding="UTF-8" standalone="no" ?>
<gpx xmlns="http://www.topografix.com/GPX/1/1" xmlns:xsi="http://www.w3.org/2001/XMLSchema-instance" xsi:schemaLocation="http://www.topografix.com/GPX/1/1 http://www.topografix.com/GPX/1/1/gpx.xsd" version="1.1" creator="VisuGPX - https://www.visugpx.com">
  <metadata>
    <name>Rando sur la Bresse</name>
    <desc><![CDATA[Rando a faire ne pas tenir compte du temps.....:)]]></desc>
  </metadata>
  <trk>
    <name><![CDATA[La Bresse 37kms 1700 D+]]></name>
    <trkseg>
      <trkpt lat="48.04005" lon="6.9752">
        <ele>938.2109375</ele>
        <time>2011-08-17T07:28:11Z</time>
      </trkpt>
      <trkpt lat="48.04022" lon="6.9753">
        <ele>940.93359375</ele>
        <time>2011-08-17T07:28:24Z</time>
      </trkpt>
      <trkpt lat="48.04039" lon="6.97539">
        <ele>943.625</ele>
        <time>2011-08-17T07:28:35Z</time>
      </trkpt>
      <trkpt lat="48.04054" lon="6.97548">
        <ele>945.87109375</ele>
        <time>2011-08-17T07:28:48Z</time>
      </trkpt>
      <trkpt lat="48.04069" lon="6.97563">
        <ele>950.84765625</ele>
        <time>2011-08-17T07:29:01Z</time>
      </trkpt>
      <trkpt lat="48.04083" lon="6.97579">
        <ele>955.82421875</ele>
        <time>2011-08-17T07:29:13Z</time>
      </trkpt>
      <trkpt lat="48.04101" lon="6.97594">
        <ele>960.50390625</ele>
        <time>2011-08-17T07:29:28Z</time>
      </trkpt>
      <trkpt lat="48.04117" lon="6.97603">
        <ele>961.57421875</ele>
        <time>2011-08-17T07:29:40Z</time>
      </trkpt>
      <trkpt lat="48.04144" lon="6.97618">
        <ele>964.6328125</ele>
        <time>2011-08-17T07:29:57Z</time>
      </trkpt>
      <trkpt lat="48.0416" lon="6.97626">
        <ele>966.23828125</ele>
        <time>2011-08-17T07:30:08Z</time>
      </trkpt>
      <trkpt lat="48.04182" lon="6.97635">
        <ele>966.55078125</ele>
        <time>2011-08-17T07:30:21Z</time>
      </trkpt>
      <trkpt lat="48.04208" lon="6.9765">
        <ele>969.6796875</ele>
        <time>2011-08-17T07:30:35Z</time>
      </trkpt>
      <trkpt lat="48.04219" lon="6.97651">
        <ele>968.359375</ele>
        <time>2011-08-17T07:30:47Z</time>
      </trkpt>
      <trkpt lat="48.04235" lon="6.97655">
        <ele>968.2421875</ele>
        <time>2011-08-17T07:30:55Z</time>
      </trkpt>
      <trkpt lat="48.04258" lon="6.97666">
        <ele>970.0078125</ele>
        <time>2011-08-17T07:31:07Z</time>
      </trkpt>
      <trkpt lat="48.0428" lon="6.97675">
        <ele>972.109375</ele>
        <time>2011-08-17T07:31:23Z</time>
      </trkpt>
      <trkpt lat="48.04304" lon="6.97688">
        <ele>975.96875</ele>
        <time>2011-08-17T07:31:39Z</time>
      </trkpt>
      <trkpt lat="48.04307" lon="6.97689">
        <ele>976.01171875</ele>
        <time>2011-08-17T07:31:41Z</time>
      </trkpt>
      <trkpt lat="48.04327" lon="6.97693">
        <ele>976.359375</ele>
        <time>2011-08-17T07:31:54Z</time>
      </trkpt>
      <trkpt lat="48.04336" lon="6.97696">
        <ele>977.41796875</ele>
        <time>2011-08-17T07:32:00Z</time>
      </trkpt>
      <trkpt lat="48.04358" lon="6.97702">
        <ele>979.25390625</ele>
        <time>2011-08-17T07:32:13Z</time>
      </trkpt>
      <trkpt lat="48.04383" lon="6.97706">
        <ele>979.85546875</ele>
        <time>2011-08-17T07:32:30Z</time>
      </trkpt>
      <trkpt lat="48.04407" lon="6.97713">
        <ele>981.51953125</ele>
        <time>2011-08-17T07:32:43Z</time>
      </trkpt>
      <trkpt lat="48.04436" lon="6.97725">
        <ele>985.8984375</ele>
        <time>2011-08-17T07:32:59Z</time>
      </trkpt>
      <trkpt lat="48.04447" lon="6.97727">
        <ele>986.92578125</ele>
        <time>2011-08-17T07:33:05Z</time>
      </trkpt>
      <trkpt lat="48.04461" lon="6.97726">
        <ele>986.33203125</ele>
        <time>2011-08-17T07:33:14Z</time>
      </trkpt>
      <trkpt lat="48.0448" lon="6.97734">
        <ele>989.0703125</ele>
        <time>2011-08-17T07:33:23Z</time>
      </trkpt>
      <trkpt lat="48.04503" lon="6.97748">
        <ele>994.33984375</ele>
        <time>2011-08-17T07:33:39Z</time>
      </trkpt>
      <trkpt lat="48.04506" lon="6.97749">
        <ele>994.66796875</ele>
        <time>2011-08-17T07:33:42Z</time>
      </trkpt>
      <trkpt lat="48.04516" lon="6.97749">
        <ele>994.69140625</ele>
        <time>2011-08-17T07:33:49Z</time>
      </trkpt>
      <trkpt lat="48.04542" lon="6.97757">
        <ele>998.03125</ele>
        <time>2011-08-17T07:34:04Z</time>
      </trkpt>
      <trkpt lat="48.0456" lon="6.97775">
        <ele>1003.82421875</ele>
        <time>2011-08-17T07:34:17Z</time>
      </trkpt>
      <trkpt lat="48.04588" lon="6.97793">
        <ele>1007.671875</ele>
        <time>2011-08-17T07:34:33Z</time>
      </trkpt>
      <trkpt lat="48.04604" lon="6.97803">
        <ele>1009.40625</ele>
        <time>2011-08-17T07:34:42Z</time>
      </trkpt>
      <trkpt lat="48.04625" lon="6.97812">
        <ele>1010.47265625</ele>
        <time>2011-08-17T07:34:55Z</time>
      </trkpt>
      <trkpt lat="48.04637" lon="6.97826">
        <ele>1013.41796875</ele>
        <time>2011-08-17T07:35:05Z</time>
      </trkpt>
      <trkpt lat="48.04632" lon="6.97832">
        <ele>1015.25</ele>
        <time>2011-08-17T07:35:09Z</time>
      </trkpt>
      <trkpt lat="48.04607" lon="6.97829">
        <ele>1016.51171875</ele>
        <time>2011-08-17T07:35:25Z</time>
      </trkpt>
      <trkpt lat="48.04595" lon="6.97828">
        <ele>1017.08984375</ele>
        <time>2011-08-17T07:35:32Z</time>
      </trkpt>
      <trkpt lat="48.04594" lon="6.97831">
        <ele>1017.9609375</ele>
        <time>2011-08-17T07:35:35Z</time>
      </trkpt>
      <trkpt lat="48.04583" lon="6.97832">
        <ele>1018.9609375</ele>
        <time>2011-08-17T07:35:42Z</time>
      </trkpt>
      <trkpt lat="48.04573" lon="6.97828">
        <ele>1018.734375</ele>
        <time>2011-08-17T07:35:50Z</time>
      </trkpt>
      <trkpt lat="48.04566" lon="6.9783">
        <ele>1019.45703125</ele>
        <time>2011-08-17T07:35:54Z</time>
      </trkpt>
      <trkpt lat="48.04561" lon="6.97832">
        <ele>1020.16796875</ele>
        <time>2011-08-17T07:35:57Z</time>
      </trkpt>
      <trkpt lat="48.04557" lon="6.9783">
        <ele>1019.84375</ele>
        <time>2011-08-17T07:35:59Z</time>
      </trkpt>
      <trkpt lat="48.04549" lon="6.97831">
        <ele>1020.35546875</ele>
        <time>2011-08-17T07:36:03Z</time>
      </trkpt>
      <trkpt lat="48.04543" lon="6.97833">
        <ele>1021.18359375</ele>
        <time>2011-08-17T07:36:07Z</time>
      </trkpt>
      <trkpt lat="48.04529" lon="6.97839">
        <ele>1023.3359375</ele>
        <time>2011-08-17T07:36:16Z</time>
      </trkpt>
      <trkpt lat="48.0451" lon="6.97841">
        <ele>1025.0546875</ele>
        <time>2011-08-17T07:36:26Z</time>
      </trkpt>
      <trkpt lat="48.04486" lon="6.97845">
        <ele>1027.1640625</ele>
        <time>2011-08-17T07:36:40Z</time>
      </trkpt>
      <trkpt lat="48.04467" lon="6.97843">
        <ele>1027.8828125</ele>
        <time>2011-08-17T07:36:51Z</time>
      </trkpt>
      <trkpt lat="48.04452" lon="6.97841">
        <ele>1028.14453125</ele>
        <time>2011-08-17T07:36:59Z</time>
      </trkpt>
      <trkpt lat="48.04427" lon="6.97842">
        <ele>1030.0390625</ele>
        <time>2011-08-17T07:37:13Z</time>
      </trkpt>
      <trkpt lat="48.04427" lon="6.97848">
        <ele>1032.09765625</ele>
        <time>2011-08-17T07:37:27Z</time>
      </trkpt>
      <trkpt lat="48.04425" lon="6.97848">
        <ele>1032.09375</ele>
        <time>2011-08-17T07:37:33Z</time>
      </trkpt>
      <trkpt lat="48.0442" lon="6.97847">
        <ele>1032.13671875</ele>
        <time>2011-08-17T07:37:36Z</time>
      </trkpt>
      <trkpt lat="48.04412" lon="6.97848">
        <ele>1033.07421875</ele>
        <time>2011-08-17T07:37:41Z</time>
      </trkpt>
      <trkpt lat="48.04407" lon="6.9785">
        <ele>1034.08203125</ele>
        <time>2011-08-17T07:37:44Z</time>
      </trkpt>
      <trkpt lat="48.04398" lon="6.97854">
        <ele>1035.9921875</ele>
        <time>2011-08-17T07:37:50Z</time>
      </trkpt>
      <trkpt lat="48.04396" lon="6.97855">
        <ele>1036.6796875</ele>
        <time>2011-08-17T07:37:52Z</time>
      </trkpt>
      <trkpt lat="48.04386" lon="6.97854">
        <ele>1037.19140625</ele>
        <time>2011-08-17T07:37:57Z</time>
      </trkpt>
      <trkpt lat="48.04377" lon="6.97856">
        <ele>1038.64453125</ele>
        <time>2011-08-17T07:38:02Z</time>
      </trkpt>
      <trkpt lat="48.04368" lon="6.97861">
        <ele>1041.6796875</ele>
        <time>2011-08-17T07:38:09Z</time>
      </trkpt>
      <trkpt lat="48.04338" lon="6.97859">
        <ele>1045.30859375</ele>
        <time>2011-08-17T07:38:25Z</time>
      </trkpt>
      <trkpt lat="48.04333" lon="6.97862">
        <ele>1047.3359375</ele>
        <time>2011-08-17T07:38:29Z</time>
      </trkpt>
      <trkpt lat="48.04325" lon="6.97863">
        <ele>1049.2734375</ele>
        <time>2011-08-17T07:38:34Z</time>
      </trkpt>
      <trkpt lat="48.04302" lon="6.97861">
        <ele>1051.71484375</ele>
        <time>2011-08-17T07:38:47Z</time>
      </trkpt>
      <trkpt lat="48.04265" lon="6.97855">
        <ele>1055.41796875</ele>
        <time>2011-08-17T07:39:03Z</time>
      </trkpt>
      <trkpt lat="48.04246" lon="6.9785">
        <ele>1056.63671875</ele>
        <time>2011-08-17T07:39:13Z</time>
      </trkpt>
      <trkpt lat="48.04244" lon="6.97849">
        <ele>1056.62890625</ele>
        <time>2011-08-17T07:39:15Z</time>
      </trkpt>
      <trkpt lat="48.04223" lon="6.97844">
        <ele>1056.9765625</ele>
        <time>2011-08-17T07:39:27Z</time>
      </trkpt>
      <trkpt lat="48.04201" lon="6.97835">
        <ele>1055.59765625</ele>
        <time>2011-08-17T07:39:38Z</time>
      </trkpt>
      <trkpt lat="48.04178" lon="6.97832">
        <ele>1056.31640625</ele>
        <time>2011-08-17T07:39:49Z</time>
      </trkpt>
      <trkpt lat="48.04176" lon="6.97833">
        <ele>1056.765625</ele>
        <time>2011-08-17T07:39:51Z</time>
      </trkpt>
      <trkpt lat="48.04158" lon="6.97825">
        <ele>1054.80859375</ele>
        <time>2011-08-17T07:39:57Z</time>
      </trkpt>
      <trkpt lat="48.0415" lon="6.97824">
        <ele>1054.6640625</ele>
        <time>2011-08-17T07:40:02Z</time>
      </trkpt>
      <trkpt lat="48.04126" lon="6.97824">
        <ele>1054.359375</ele>
        <time>2011-08-17T07:40:14Z</time>
      </trkpt>
      <trkpt lat="48.04099" lon="6.97826">
        <ele>1053.1328125</ele>
        <time>2011-08-17T07:40:27Z</time>
      </trkpt>
      <trkpt lat="48.04075" lon="6.97836">
        <ele>1052.2265625</ele>
        <time>2011-08-17T07:40:40Z</time>
      </trkpt>
      <trkpt lat="48.0407" lon="6.9784">
        <ele>1052.21875</ele>
        <time>2011-08-17T07:40:43Z</time>
      </trkpt>
      <trkpt lat="48.04064" lon="6.97845">
        <ele>1051.83984375</ele>
        <time>2011-08-17T07:40:47Z</time>
      </trkpt>
      <trkpt lat="48.04037" lon="6.97883">
        <ele>1052.375</ele>
        <time>2011-08-17T07:41:07Z</time>
      </trkpt>
      <trkpt lat="48.04035" lon="6.97889">
        <ele>1052.875</ele>
        <time>2011-08-17T07:41:10Z</time>
      </trkpt>
      <trkpt lat="48.04031" lon="6.97912">
        <ele>1055.29296875</ele>
        <time>2011-08-17T07:41:20Z</time>
      </trkpt>
      <trkpt lat="48.04028" lon="6.97946">
        <ele>1059.9453125</ele>
        <time>2011-08-17T07:41:34Z</time>
      </trkpt>
      <trkpt lat="48.04027" lon="6.97948">
        <ele>1059.82421875</ele>
        <time>2011-08-17T07:41:35Z</time>
      </trkpt>
      <trkpt lat="48.04021" lon="6.9798">
        <ele>1062.609375</ele>
        <time>2011-08-17T07:41:48Z</time>
      </trkpt>
      <trkpt lat="48.04018" lon="6.98021">
        <ele>1067.44921875</ele>
        <time>2011-08-17T07:42:02Z</time>
      </trkpt>
      <trkpt lat="48.04019" lon="6.98024">
        <ele>1067.8984375</ele>
        <time>2011-08-17T07:42:03Z</time>
      </trkpt>
      <trkpt lat="48.04021" lon="6.98049">
        <ele>1071.41015625</ele>
        <time>2011-08-17T07:42:10Z</time>
      </trkpt>
      <trkpt lat="48.0402" lon="6.98057">
        <ele>1072.0078125</ele>
        <time>2011-08-17T07:42:13Z</time>
      </trkpt>
      <trkpt lat="48.04018" lon="6.9807">
        <ele>1072.8984375</ele>
        <time>2011-08-17T07:42:18Z</time>
      </trkpt>
      <trkpt lat="48.04016" lon="6.98102">
        <ele>1076.61328125</ele>
        <time>2011-08-17T07:42:32Z</time>
      </trkpt>
      <trkpt lat="48.04015" lon="6.9811">
        <ele>1076.96484375</ele>
        <time>2011-08-17T07:42:37Z</time>
      </trkpt>
      <trkpt lat="48.04015" lon="6.9812">
        <ele>1077.57421875</ele>
        <time>2011-08-17T07:42:40Z</time>
      </trkpt>
      <trkpt lat="48.04015" lon="6.98162">
        <ele>1081.66015625</ele>
        <time>2011-08-17T07:42:55Z</time>
      </trkpt>
      <trkpt lat="48.04015" lon="6.9817">
        <ele>1082.26953125</ele>
        <time>2011-08-17T07:42:58Z</time>
      </trkpt>
      <trkpt lat="48.04012" lon="6.98229">
        <ele>1085.78125</ele>
        <time>2011-08-17T07:43:20Z</time>
      </trkpt>
      <trkpt lat="48.0399" lon="6.98264">
        <ele>1082.6640625</ele>
        <time>2011-08-17T07:43:37Z</time>
      </trkpt>
      <trkpt lat="48.03986" lon="6.98272">
        <ele>1082.25</ele>
        <time>2011-08-17T07:43:40Z</time>
      </trkpt>
      <trkpt lat="48.03967" lon="6.98293">
        <ele>1079.01171875</ele>
        <time>2011-08-17T07:43:46Z</time>
      </trkpt>
      <trkpt lat="48.03958" lon="6.98323">
        <ele>1078.88671875</ele>
        <time>2011-08-17T07:43:51Z</time>
      </trkpt>
      <trkpt lat="48.03944" lon="6.98377">
        <ele>1079.171875</ele>
        <time>2011-08-17T07:44:05Z</time>
      </trkpt>
      <trkpt lat="48.03941" lon="6.98419">
        <ele>1080.63671875</ele>
        <time>2011-08-17T07:44:20Z</time>
      </trkpt>
      <trkpt lat="48.03941" lon="6.98423">
        <ele>1080.90234375</ele>
        <time>2011-08-17T07:44:21Z</time>
      </trkpt>
      <trkpt lat="48.03946" lon="6.98469">
        <ele>1084.296875</ele>
        <time>2011-08-17T07:44:38Z</time>
      </trkpt>
      <trkpt lat="48.03949" lon="6.98494">
        <ele>1086.79296875</ele>
        <time>2011-08-17T07:44:49Z</time>
      </trkpt>
      <trkpt lat="48.03949" lon="6.98503">
        <ele>1087.21875</ele>
        <time>2011-08-17T07:44:53Z</time>
      </trkpt>
      <trkpt lat="48.03957" lon="6.9854">
        <ele>1091.2734375</ele>
        <time>2011-08-17T07:45:07Z</time>
      </trkpt>
      <trkpt lat="48.03965" lon="6.98584">
        <ele>1095.20703125</ele>
        <time>2011-08-17T07:45:21Z</time>
      </trkpt>
      <trkpt lat="48.03967" lon="6.98625">
        <ele>1096.2265625</ele>
        <time>2011-08-17T07:45:36Z</time>
      </trkpt>
      <trkpt lat="48.03968" lon="6.98642">
        <ele>1096.640625</ele>
        <time>2011-08-17T07:45:42Z</time>
      </trkpt>
      <trkpt lat="48.03971" lon="6.98669">
        <ele>1097.6875</ele>
        <time>2011-08-17T07:45:52Z</time>
      </trkpt>
      <trkpt lat="48.03973" lon="6.98718">
        <ele>1098.1796875</ele>
        <time>2011-08-17T07:46:08Z</time>
      </trkpt>
      <trkpt lat="48.03975" lon="6.98766">
        <ele>1097.73046875</ele>
        <time>2011-08-17T07:46:18Z</time>
      </trkpt>
      <trkpt lat="48.03977" lon="6.9883">
        <ele>1097.1953125</ele>
        <time>2011-08-17T07:46:29Z</time>
      </trkpt>
      <trkpt lat="48.03989" lon="6.98894">
        <ele>1097.2890625</ele>
        <time>2011-08-17T07:46:40Z</time>
      </trkpt>
      <trkpt lat="48.04016" lon="6.9894">
        <ele>1100.6484375</ele>
        <time>2011-08-17T07:46:52Z</time>
      </trkpt>
      <trkpt lat="48.04024" lon="6.98967">
        <ele>1100.93359375</ele>
        <time>2011-08-17T07:46:57Z</time>
      </trkpt>
      <trkpt lat="48.04053" lon="6.99">
        <ele>1103.8125</ele>
        <time>2011-08-17T07:47:09Z</time>
      </trkpt>
      <trkpt lat="48.0407" lon="6.9901">
        <ele>1106.03125</ele>
        <time>2011-08-17T07:47:18Z</time>
      </trkpt>
      <trkpt lat="48.04094" lon="6.99038">
        <ele>1108.43359375</ele>
        <time>2011-08-17T07:47:29Z</time>
      </trkpt>
      <trkpt lat="48.04097" lon="6.99077">
        <ele>1107.296875</ele>
        <time>2011-08-17T07:47:40Z</time>
      </trkpt>
      <trkpt lat="48.041" lon="6.99101">
        <ele>1107.7890625</ele>
        <time>2011-08-17T07:47:51Z</time>
      </trkpt>
      <trkpt lat="48.04103" lon="6.99148">
        <ele>1109.52734375</ele>
        <time>2011-08-17T07:48:05Z</time>
      </trkpt>
      <trkpt lat="48.04103" lon="6.9915">
        <ele>1109.3984375</ele>
        <time>2011-08-17T07:48:06Z</time>
      </trkpt>
      <trkpt lat="48.04099" lon="6.99172">
        <ele>1109.25</ele>
        <time>2011-08-17T07:48:13Z</time>
      </trkpt>
      <trkpt lat="48.04098" lon="6.99216">
        <ele>1110.5</ele>
        <time>2011-08-17T07:48:25Z</time>
      </trkpt>
      <trkpt lat="48.04098" lon="6.99259">
        <ele>1111.20703125</ele>
        <time>2011-08-17T07:48:39Z</time>
      </trkpt>
      <trkpt lat="48.04099" lon="6.99317">
        <ele>1112.43359375</ele>
        <time>2011-08-17T07:48:54Z</time>
      </trkpt>
      <trkpt lat="48.04093" lon="6.99377">
        <ele>1111.6953125</ele>
        <time>2011-08-17T07:49:08Z</time>
      </trkpt>
      <trkpt lat="48.04092" lon="6.99436">
        <ele>1112.35546875</ele>
        <time>2011-08-17T07:49:19Z</time>
      </trkpt>
      <trkpt lat="48.04088" lon="6.99517">
        <ele>1110.1640625</ele>
        <time>2011-08-17T07:49:30Z</time>
      </trkpt>
      <trkpt lat="48.04086" lon="6.99535">
        <ele>1109.2734375</ele>
        <time>2011-08-17T07:49:33Z</time>
      </trkpt>
      <trkpt lat="48.04086" lon="6.99566">
        <ele>1108.21484375</ele>
        <time>2011-08-17T07:49:37Z</time>
      </trkpt>
      <trkpt lat="48.0409" lon="6.99595">
        <ele>1107.50390625</ele>
        <time>2011-08-17T07:49:41Z</time>
      </trkpt>
      <trkpt lat="48.04095" lon="6.9961">
        <ele>1107.96484375</ele>
        <time>2011-08-17T07:49:43Z</time>
      </trkpt>
      <trkpt lat="48.04101" lon="6.99622">
        <ele>1109.0546875</ele>
        <time>2011-08-17T07:49:45Z</time>
      </trkpt>
      <trkpt lat="48.04119" lon="6.99647">
        <ele>1113.19921875</ele>
        <time>2011-08-17T07:49:50Z</time>
      </trkpt>
      <trkpt lat="48.04126" lon="6.99675">
        <ele>1114.27734375</ele>
        <time>2011-08-17T07:49:54Z</time>
      </trkpt>
      <trkpt lat="48.04105" lon="6.99714">
        <ele>1108.98828125</ele>
        <time>2011-08-17T07:50:04Z</time>
      </trkpt>
      <trkpt lat="48.04098" lon="6.99726">
        <ele>1107.5625</ele>
        <time>2011-08-17T07:50:07Z</time>
      </trkpt>
      <trkpt lat="48.04105" lon="6.99751">
        <ele>1109.16015625</ele>
        <time>2011-08-17T07:50:13Z</time>
      </trkpt>
      <trkpt lat="48.04118" lon="6.99789">
        <ele>1111.96875</ele>
        <time>2011-08-17T07:50:22Z</time>
      </trkpt>
      <trkpt lat="48.04113" lon="6.9985">
        <ele>1110.2265625</ele>
        <time>2011-08-17T07:50:34Z</time>
      </trkpt>
      <trkpt lat="48.04124" lon="6.99864">
        <ele>1112.80859375</ele>
        <time>2011-08-17T07:50:38Z</time>
      </trkpt>
      <trkpt lat="48.04129" lon="6.99884">
        <ele>1114.20703125</ele>
        <time>2011-08-17T07:50:42Z</time>
      </trkpt>
      <trkpt lat="48.04127" lon="6.99901">
        <ele>1114.66015625</ele>
        <time>2011-08-17T07:50:46Z</time>
      </trkpt>
      <trkpt lat="48.0413" lon="6.99911">
        <ele>1115.5703125</ele>
        <time>2011-08-17T07:50:51Z</time>
      </trkpt>
      <trkpt lat="48.04136" lon="6.99913">
        <ele>1116.1875</ele>
        <time>2011-08-17T07:50:55Z</time>
      </trkpt>
      <trkpt lat="48.0415" lon="6.99907">
        <ele>1116.58203125</ele>
        <time>2011-08-17T07:51:05Z</time>
      </trkpt>
      <trkpt lat="48.04182" lon="6.99888">
        <ele>1118.1875</ele>
        <time>2011-08-17T07:51:16Z</time>
      </trkpt>
      <trkpt lat="48.04192" lon="6.99876">
        <ele>1117.9609375</ele>
        <time>2011-08-17T07:51:20Z</time>
      </trkpt>
      <trkpt lat="48.04211" lon="6.9986">
        <ele>1117.30859375</ele>
        <time>2011-08-17T07:51:24Z</time>
      </trkpt>
      <trkpt lat="48.04243" lon="6.99846">
        <ele>1115.03125</ele>
        <time>2011-08-17T07:51:28Z</time>
      </trkpt>
      <trkpt lat="48.04266" lon="6.99845">
        <ele>1111.640625</ele>
        <time>2011-08-17T07:51:31Z</time>
      </trkpt>
      <trkpt lat="48.04289" lon="6.99852">
        <ele>1107.9140625</ele>
        <time>2011-08-17T07:51:35Z</time>
      </trkpt>
      <trkpt lat="48.04309" lon="6.99875">
        <ele>1106.484375</ele>
        <time>2011-08-17T07:51:40Z</time>
      </trkpt>
      <trkpt lat="48.04334" lon="6.99912">
        <ele>1106.8125</ele>
        <time>2011-08-17T07:51:49Z</time>
      </trkpt>
      <trkpt lat="48.04354" lon="6.99942">
        <ele>1109.31640625</ele>
        <time>2011-08-17T07:51:58Z</time>
      </trkpt>
      <trkpt lat="48.04368" lon="6.99965">
        <ele>1112.5234375</ele>
        <time>2011-08-17T07:52:05Z</time>
      </trkpt>
      <trkpt lat="48.04383" lon="6.99986">
        <ele>1116.02734375</ele>
        <time>2011-08-17T07:52:14Z</time>
      </trkpt>
      <trkpt lat="48.04407" lon="7.00014">
        <ele>1113.15234375</ele>
        <time>2011-08-17T07:52:23Z</time>
      </trkpt>
      <trkpt lat="48.04418" lon="7.00037">
        <ele>1113.9140625</ele>
        <time>2011-08-17T07:52:31Z</time>
      </trkpt>
      <trkpt lat="48.04419" lon="7.00044">
        <ele>1115.6484375</ele>
        <time>2011-08-17T07:52:47Z</time>
      </trkpt>
      <trkpt lat="48.04419" lon="7.00045">
        <ele>1115.8359375</ele>
        <time>2011-08-17T07:52:50Z</time>
      </trkpt>
      <trkpt lat="48.04422" lon="7.00053">
        <ele>1116</ele>
        <time>2011-08-17T07:52:54Z</time>
      </trkpt>
      <trkpt lat="48.04427" lon="7.00062">
        <ele>1116.05859375</ele>
        <time>2011-08-17T07:53:05Z</time>
      </trkpt>
      <trkpt lat="48.04421" lon="7.0006">
        <ele>1118.76171875</ele>
        <time>2011-08-17T07:53:20Z</time>
      </trkpt>
      <trkpt lat="48.04424" lon="7.00065">
        <ele>1118.3125</ele>
        <time>2011-08-17T07:53:32Z</time>
      </trkpt>
      <trkpt lat="48.04426" lon="7.00074">
        <ele>1119.57421875</ele>
        <time>2011-08-17T07:53:44Z</time>
      </trkpt>
      <trkpt lat="48.04428" lon="7.00087">
        <ele>1120.56640625</ele>
        <time>2011-08-17T07:53:50Z</time>
      </trkpt>
      <trkpt lat="48.0443" lon="7.00092">
        <ele>1120.4453125</ele>
        <time>2011-08-17T07:53:53Z</time>
      </trkpt>
      <trkpt lat="48.0443" lon="7.00105">
        <ele>1122.7421875</ele>
        <time>2011-08-17T07:54:01Z</time>
      </trkpt>
      <trkpt lat="48.04444" lon="7.0013">
        <ele>1117.37109375</ele>
        <time>2011-08-17T07:54:14Z</time>
      </trkpt>
      <trkpt lat="48.04446" lon="7.00139">
        <ele>1116.921875</ele>
        <time>2011-08-17T07:54:18Z</time>
      </trkpt>
      <trkpt lat="48.04454" lon="7.00154">
        <ele>1113.3515625</ele>
        <time>2011-08-17T07:54:21Z</time>
      </trkpt>
      <trkpt lat="48.04458" lon="7.00192">
        <ele>1115.34765625</ele>
        <time>2011-08-17T07:54:34Z</time>
      </trkpt>
      <trkpt lat="48.04458" lon="7.00193">
        <ele>1115.6015625</ele>
        <time>2011-08-17T07:54:35Z</time>
      </trkpt>
      <trkpt lat="48.04459" lon="7.002">
        <ele>1115.45703125</ele>
        <time>2011-08-17T07:54:37Z</time>
      </trkpt>
      <trkpt lat="48.04458" lon="7.00222">
        <ele>1118.88671875</ele>
        <time>2011-08-17T07:54:44Z</time>
      </trkpt>
      <trkpt lat="48.0446" lon="7.00229">
        <ele>1118.54296875</ele>
        <time>2011-08-17T07:54:47Z</time>
      </trkpt>
      <trkpt lat="48.04467" lon="7.00249">
        <ele>1117.953125</ele>
        <time>2011-08-17T07:54:54Z</time>
      </trkpt>
      <trkpt lat="48.04475" lon="7.00264">
        <ele>1116.46484375</ele>
        <time>2011-08-17T07:55:02Z</time>
      </trkpt>
      <trkpt lat="48.04481" lon="7.00278">
        <ele>1116.71484375</ele>
        <time>2011-08-17T07:55:17Z</time>
      </trkpt>
      <trkpt lat="48.04484" lon="7.00282">
        <ele>1116.28515625</ele>
        <time>2011-08-17T07:55:22Z</time>
      </trkpt>
      <trkpt lat="48.04494" lon="7.00301">
        <ele>1116.31640625</ele>
        <time>2011-08-17T07:55:36Z</time>
      </trkpt>
      <trkpt lat="48.04495" lon="7.00314">
        <ele>1120.7265625</ele>
        <time>2011-08-17T07:55:51Z</time>
      </trkpt>
      <trkpt lat="48.04502" lon="7.0032">
        <ele>1118.9921875</ele>
        <time>2011-08-17T07:55:58Z</time>
      </trkpt>
      <trkpt lat="48.04508" lon="7.00322">
        <ele>1116.23828125</ele>
        <time>2011-08-17T07:56:10Z</time>
      </trkpt>
      <trkpt lat="48.04513" lon="7.00326">
        <ele>1114.9140625</ele>
        <time>2011-08-17T07:56:16Z</time>
      </trkpt>
      <trkpt lat="48.04536" lon="7.00341">
        <ele>1109.15625</ele>
        <time>2011-08-17T07:56:32Z</time>
      </trkpt>
      <trkpt lat="48.04548" lon="7.00352">
        <ele>1107.84375</ele>
        <time>2011-08-17T07:56:44Z</time>
      </trkpt>
      <trkpt lat="48.04557" lon="7.00361">
        <ele>1106.953125</ele>
        <time>2011-08-17T07:57:02Z</time>
      </trkpt>
      <trkpt lat="48.04564" lon="7.00365">
        <ele>1105.39453125</ele>
        <time>2011-08-17T07:57:13Z</time>
      </trkpt>
      <trkpt lat="48.0457" lon="7.0037">
        <ele>1104.46484375</ele>
        <time>2011-08-17T07:57:23Z</time>
      </trkpt>
      <trkpt lat="48.0458" lon="7.00379">
        <ele>1104.76953125</ele>
        <time>2011-08-17T07:57:36Z</time>
      </trkpt>
      <trkpt lat="48.04584" lon="7.00383">
        <ele>1105.265625</ele>
        <time>2011-08-17T07:57:41Z</time>
      </trkpt>
      <trkpt lat="48.04599" lon="7.00386">
        <ele>1101.71875</ele>
        <time>2011-08-17T07:57:52Z</time>
      </trkpt>
      <trkpt lat="48.04615" lon="7.00398">
        <ele>1103.3203125</ele>
        <time>2011-08-17T07:58:06Z</time>
      </trkpt>
      <trkpt lat="48.04628" lon="7.00421">
        <ele>1111.37109375</ele>
        <time>2011-08-17T07:58:16Z</time>
      </trkpt>
      <trkpt lat="48.04632" lon="7.00427">
        <ele>1113.15234375</ele>
        <time>2011-08-17T07:58:25Z</time>
      </trkpt>
      <trkpt lat="48.04639" lon="7.00431">
        <ele>1113.484375</ele>
        <time>2011-08-17T07:58:34Z</time>
      </trkpt>
      <trkpt lat="48.04646" lon="7.00434">
        <ele>1113.453125</ele>
        <time>2011-08-17T07:58:43Z</time>
      </trkpt>
      <trkpt lat="48.0467" lon="7.00438">
        <ele>1110.60546875</ele>
        <time>2011-08-17T07:58:56Z</time>
      </trkpt>
      <trkpt lat="48.04686" lon="7.00438">
        <ele>1108.6953125</ele>
        <time>2011-08-17T07:59:05Z</time>
      </trkpt>
      <trkpt lat="48.04696" lon="7.00442">
        <ele>1108.9609375</ele>
        <time>2011-08-17T07:59:10Z</time>
      </trkpt>
      <trkpt lat="48.04699" lon="7.00442">
        <ele>1109</ele>
        <time>2011-08-17T07:59:16Z</time>
      </trkpt>
      <trkpt lat="48.0472" lon="7.00445">
        <ele>1108.4296875</ele>
        <time>2011-08-17T07:59:25Z</time>
      </trkpt>
      <trkpt lat="48.04733" lon="7.00452">
        <ele>1111.5390625</ele>
        <time>2011-08-17T07:59:35Z</time>
      </trkpt>
      <trkpt lat="48.04741" lon="7.00454">
        <ele>1112.21484375</ele>
        <time>2011-08-17T07:59:51Z</time>
      </trkpt>
      <trkpt lat="48.04757" lon="7.00456">
        <ele>1112.53125</ele>
        <time>2011-08-17T08:00:06Z</time>
      </trkpt>
      <trkpt lat="48.04788" lon="7.00452">
        <ele>1109.7890625</ele>
        <time>2011-08-17T08:00:15Z</time>
      </trkpt>
      <trkpt lat="48.04824" lon="7.00443">
        <ele>1104.921875</ele>
        <time>2011-08-17T08:00:24Z</time>
      </trkpt>
      <trkpt lat="48.04856" lon="7.00436">
        <ele>1102.7890625</ele>
        <time>2011-08-17T08:00:34Z</time>
      </trkpt>
      <trkpt lat="48.04906" lon="7.00437">
        <ele>1102.703125</ele>
        <time>2011-08-17T08:00:45Z</time>
      </trkpt>
      <trkpt lat="48.04957" lon="7.00426">
        <ele>1102.15625</ele>
        <time>2011-08-17T08:00:59Z</time>
      </trkpt>
      <trkpt lat="48.04982" lon="7.00423">
        <ele>1102.24609375</ele>
        <time>2011-08-17T08:01:08Z</time>
      </trkpt>
      <trkpt lat="48.0502" lon="7.00438">
        <ele>1105.640625</ele>
        <time>2011-08-17T08:01:24Z</time>
      </trkpt>
      <trkpt lat="48.05038" lon="7.00449">
        <ele>1107.328125</ele>
        <time>2011-08-17T08:01:34Z</time>
      </trkpt>
      <trkpt lat="48.05064" lon="7.00464">
        <ele>1109.01953125</ele>
        <time>2011-08-17T08:01:46Z</time>
      </trkpt>
      <trkpt lat="48.05069" lon="7.00465">
        <ele>1108.73828125</ele>
        <time>2011-08-17T08:01:49Z</time>
      </trkpt>
      <trkpt lat="48.05089" lon="7.00471">
        <ele>1109.2109375</ele>
        <time>2011-08-17T08:01:59Z</time>
      </trkpt>
      <trkpt lat="48.051" lon="7.00471">
        <ele>1108.97265625</ele>
        <time>2011-08-17T08:02:06Z</time>
      </trkpt>
      <trkpt lat="48.05103" lon="7.00473">
        <ele>1109.390625</ele>
        <time>2011-08-17T08:02:09Z</time>
      </trkpt>
      <trkpt lat="48.05134" lon="7.00476">
        <ele>1109.70703125</ele>
        <time>2011-08-17T08:02:21Z</time>
      </trkpt>
      <trkpt lat="48.05139" lon="7.00476">
        <ele>1109.64453125</ele>
        <time>2011-08-17T08:02:23Z</time>
      </trkpt>
      <trkpt lat="48.05171" lon="7.0048">
        <ele>1108.91796875</ele>
        <time>2011-08-17T08:02:33Z</time>
      </trkpt>
      <trkpt lat="48.05187" lon="7.00484">
        <ele>1108.7421875</ele>
        <time>2011-08-17T08:02:39Z</time>
      </trkpt>
      <trkpt lat="48.05218" lon="7.00498">
        <ele>1110.10546875</ele>
        <time>2011-08-17T08:02:50Z</time>
      </trkpt>
      <trkpt lat="48.05232" lon="7.00501">
        <ele>1109.08984375</ele>
        <time>2011-08-17T08:02:55Z</time>
      </trkpt>
      <trkpt lat="48.05263" lon="7.00513">
        <ele>1108.36328125</ele>
        <time>2011-08-17T08:03:06Z</time>
      </trkpt>
      <trkpt lat="48.05274" lon="7.00521">
        <ele>1108.94921875</ele>
        <time>2011-08-17T08:03:10Z</time>
      </trkpt>
      <trkpt lat="48.05286" lon="7.00527">
        <ele>1109.31640625</ele>
        <time>2011-08-17T08:03:15Z</time>
      </trkpt>
      <trkpt lat="48.05309" lon="7.00557">
        <ele>1113.90234375</ele>
        <time>2011-08-17T08:03:23Z</time>
      </trkpt>
      <trkpt lat="48.05317" lon="7.00563">
        <ele>1114.453125</ele>
        <time>2011-08-17T08:03:39Z</time>
      </trkpt>
      <trkpt lat="48.0532" lon="7.00568">
        <ele>1115.01171875</ele>
        <time>2011-08-17T08:03:56Z</time>
      </trkpt>
      <trkpt lat="48.05336" lon="7.00548">
        <ele>1110.5078125</ele>
        <time>2011-08-17T08:04:04Z</time>
      </trkpt>
      <trkpt lat="48.05341" lon="7.0054">
        <ele>1108.76171875</ele>
        <time>2011-08-17T08:04:07Z</time>
      </trkpt>
      <trkpt lat="48.05379" lon="7.00521">
        <ele>1104.875</ele>
        <time>2011-08-17T08:04:24Z</time>
      </trkpt>
      <trkpt lat="48.05381" lon="7.00544">
        <ele>1110.0703125</ele>
        <time>2011-08-17T08:04:36Z</time>
      </trkpt>
      <trkpt lat="48.05379" lon="7.00549">
        <ele>1110.984375</ele>
        <time>2011-08-17T08:04:39Z</time>
      </trkpt>
      <trkpt lat="48.0537" lon="7.00578">
        <ele>1116.6953125</ele>
        <time>2011-08-17T08:04:53Z</time>
      </trkpt>
      <trkpt lat="48.05358" lon="7.00614">
        <ele>1122.3359375</ele>
        <time>2011-08-17T08:05:11Z</time>
      </trkpt>
      <trkpt lat="48.05337" lon="7.00642">
        <ele>1128.2578125</ele>
        <time>2011-08-17T08:05:30Z</time>
      </trkpt>
      <trkpt lat="48.05306" lon="7.0065">
        <ele>1132.55859375</ele>
        <time>2011-08-17T08:05:50Z</time>
      </trkpt>
      <trkpt lat="48.05292" lon="7.00651">
        <ele>1134.265625</ele>
        <time>2011-08-17T08:06:00Z</time>
      </trkpt>
      <trkpt lat="48.05284" lon="7.0065">
        <ele>1135.33203125</ele>
        <time>2011-08-17T08:06:07Z</time>
      </trkpt>
      <trkpt lat="48.05278" lon="7.00654">
        <ele>1136.796875</ele>
        <time>2011-08-17T08:06:12Z</time>
      </trkpt>
      <trkpt lat="48.0526" lon="7.00657">
        <ele>1139.609375</ele>
        <time>2011-08-17T08:06:24Z</time>
      </trkpt>
      <trkpt lat="48.05239" lon="7.00648">
        <ele>1139.48828125</ele>
        <time>2011-08-17T08:06:34Z</time>
      </trkpt>
      <trkpt lat="48.05223" lon="7.00649">
        <ele>1140.74609375</ele>
        <time>2011-08-17T08:06:45Z</time>
      </trkpt>
      <trkpt lat="48.0521" lon="7.0065">
        <ele>1141.953125</ele>
        <time>2011-08-17T08:06:54Z</time>
      </trkpt>
      <trkpt lat="48.05204" lon="7.00652">
        <ele>1142.74609375</ele>
        <time>2011-08-17T08:06:59Z</time>
      </trkpt>
      <trkpt lat="48.052" lon="7.00655">
        <ele>1143.45703125</ele>
        <time>2011-08-17T08:07:03Z</time>
      </trkpt>
      <trkpt lat="48.0519" lon="7.00656">
        <ele>1144.37890625</ele>
        <time>2011-08-17T08:07:09Z</time>
      </trkpt>
      <trkpt lat="48.05186" lon="7.00659">
        <ele>1145.3203125</ele>
        <time>2011-08-17T08:07:12Z</time>
      </trkpt>
      <trkpt lat="48.05174" lon="7.00662">
        <ele>1146.30859375</ele>
        <time>2011-08-17T08:07:20Z</time>
      </trkpt>
      <trkpt lat="48.05155" lon="7.0067">
        <ele>1148.9765625</ele>
        <time>2011-08-17T08:07:34Z</time>
      </trkpt>
      <trkpt lat="48.05133" lon="7.0068">
        <ele>1151.8671875</ele>
        <time>2011-08-17T08:07:51Z</time>
      </trkpt>
      <trkpt lat="48.05116" lon="7.00688">
        <ele>1154.3046875</ele>
        <time>2011-08-17T08:08:05Z</time>
      </trkpt>
      <trkpt lat="48.05092" lon="7.00699">
        <ele>1157.765625</ele>
        <time>2011-08-17T08:08:21Z</time>
      </trkpt>
      <trkpt lat="48.05073" lon="7.0071">
        <ele>1161.609375</ele>
        <time>2011-08-17T08:08:29Z</time>
      </trkpt>
      <trkpt lat="48.05052" lon="7.00703">
        <ele>1161.5625</ele>
        <time>2011-08-17T08:08:36Z</time>
      </trkpt>
      <trkpt lat="48.05035" lon="7.00702">
        <ele>1162.81640625</ele>
        <time>2011-08-17T08:08:49Z</time>
      </trkpt>
      <trkpt lat="48.05026" lon="7.00702">
        <ele>1163.7265625</ele>
        <time>2011-08-17T08:08:56Z</time>
      </trkpt>
      <trkpt lat="48.04997" lon="7.007">
        <ele>1166.65625</ele>
        <time>2011-08-17T08:09:08Z</time>
      </trkpt>
      <trkpt lat="48.04961" lon="7.00693">
        <ele>1170.09375</ele>
        <time>2011-08-17T08:09:26Z</time>
      </trkpt>
      <trkpt lat="48.0493" lon="7.0069">
        <ele>1173.62890625</ele>
        <time>2011-08-17T08:09:45Z</time>
      </trkpt>
      <trkpt lat="48.04922" lon="7.00689">
        <ele>1174.8671875</ele>
        <time>2011-08-17T08:09:52Z</time>
      </trkpt>
      <trkpt lat="48.04886" lon="7.00693">
        <ele>1181.1171875</ele>
        <time>2011-08-17T08:10:12Z</time>
      </trkpt>
      <trkpt lat="48.04885" lon="7.00693">
        <ele>1181.265625</ele>
        <time>2011-08-17T08:10:13Z</time>
      </trkpt>
      <trkpt lat="48.04884" lon="7.00693">
        <ele>1181.23828125</ele>
        <time>2011-08-17T08:10:29Z</time>
      </trkpt>
      <trkpt lat="48.04874" lon="7.00691">
        <ele>1182.26953125</ele>
        <time>2011-08-17T08:11:00Z</time>
      </trkpt>
      <trkpt lat="48.04872" lon="7.00692">
        <ele>1182.71875</ele>
        <time>2011-08-17T08:11:02Z</time>
      </trkpt>
      <trkpt lat="48.04859" lon="7.00691">
        <ele>1183.92578125</ele>
        <time>2011-08-17T08:11:09Z</time>
      </trkpt>
      <trkpt lat="48.04841" lon="7.00688">
        <ele>1185.3125</ele>
        <time>2011-08-17T08:11:20Z</time>
      </trkpt>
      <trkpt lat="48.04821" lon="7.0068">
        <ele>1186.0078125</ele>
        <time>2011-08-17T08:11:31Z</time>
      </trkpt>
      <trkpt lat="48.048" lon="7.00678">
        <ele>1187.52734375</ele>
        <time>2011-08-17T08:11:43Z</time>
      </trkpt>
      <trkpt lat="48.04782" lon="7.00685">
        <ele>1192.05078125</ele>
        <time>2011-08-17T08:11:56Z</time>
      </trkpt>
      <trkpt lat="48.04778" lon="7.00684">
        <ele>1192.46484375</ele>
        <time>2011-08-17T08:11:58Z</time>
      </trkpt>
      <trkpt lat="48.04759" lon="7.00684">
        <ele>1194.87890625</ele>
        <time>2011-08-17T08:12:10Z</time>
      </trkpt>
      <trkpt lat="48.04745" lon="7.00685">
        <ele>1196.5078125</ele>
        <time>2011-08-17T08:12:20Z</time>
      </trkpt>
      <trkpt lat="48.04728" lon="7.00686">
        <ele>1198.28125</ele>
        <time>2011-08-17T08:12:32Z</time>
      </trkpt>
      <trkpt lat="48.04722" lon="7.00686">
        <ele>1198.9296875</ele>
        <time>2011-08-17T08:12:36Z</time>
      </trkpt>
      <trkpt lat="48.04702" lon="7.00692">
        <ele>1202.24609375</ele>
        <time>2011-08-17T08:12:50Z</time>
      </trkpt>
      <trkpt lat="48.04701" lon="7.00693">
        <ele>1202.54296875</ele>
        <time>2011-08-17T08:12:51Z</time>
      </trkpt>
      <trkpt lat="48.04681" lon="7.00694">
        <ele>1204.71875</ele>
        <time>2011-08-17T08:13:05Z</time>
      </trkpt>
      <trkpt lat="48.04678" lon="7.00694">
        <ele>1205.20703125</ele>
        <time>2011-08-17T08:13:07Z</time>
      </trkpt>
      <trkpt lat="48.0466" lon="7.00696">
        <ele>1207.515625</ele>
        <time>2011-08-17T08:13:19Z</time>
      </trkpt>
      <trkpt lat="48.04656" lon="7.00696">
        <ele>1208.0234375</ele>
        <time>2011-08-17T08:13:23Z</time>
      </trkpt>
      <trkpt lat="48.04654" lon="7.00695">
        <ele>1208.15625</ele>
        <time>2011-08-17T08:13:25Z</time>
      </trkpt>
      <trkpt lat="48.0465" lon="7.00696">
        <ele>1208.9296875</ele>
        <time>2011-08-17T08:13:28Z</time>
      </trkpt>
      <trkpt lat="48.04627" lon="7.00685">
        <ele>1210.4609375</ele>
        <time>2011-08-17T08:13:43Z</time>
      </trkpt>
      <trkpt lat="48.046" lon="7.00675">
        <ele>1213.04296875</ele>
        <time>2011-08-17T08:13:59Z</time>
      </trkpt>
      <trkpt lat="48.04583" lon="7.00667">
        <ele>1215.27734375</ele>
        <time>2011-08-17T08:14:08Z</time>
      </trkpt>
      <trkpt lat="48.04568" lon="7.00661">
        <ele>1217.37890625</ele>
        <time>2011-08-17T08:14:20Z</time>
      </trkpt>
      <trkpt lat="48.04558" lon="7.00657">
        <ele>1218.734375</ele>
        <time>2011-08-17T08:14:24Z</time>
      </trkpt>
      <trkpt lat="48.04555" lon="7.00658">
        <ele>1219.63671875</ele>
        <time>2011-08-17T08:14:26Z</time>
      </trkpt>
      <trkpt lat="48.04538" lon="7.00654">
        <ele>1223.08984375</ele>
        <time>2011-08-17T08:14:36Z</time>
      </trkpt>
      <trkpt lat="48.04518" lon="7.00649">
        <ele>1226.96875</ele>
        <time>2011-08-17T08:14:47Z</time>
      </trkpt>
      <trkpt lat="48.04494" lon="7.00641">
        <ele>1230.984375</ele>
        <time>2011-08-17T08:15:01Z</time>
      </trkpt>
      <trkpt lat="48.04482" lon="7.0063">
        <ele>1231.375</ele>
        <time>2011-08-17T08:15:11Z</time>
      </trkpt>
      <trkpt lat="48.04456" lon="7.00611">
        <ele>1232.92578125</ele>
        <time>2011-08-17T08:15:27Z</time>
      </trkpt>
      <trkpt lat="48.04447" lon="7.00604">
        <ele>1233.31640625</ele>
        <time>2011-08-17T08:15:32Z</time>
      </trkpt>
      <trkpt lat="48.04431" lon="7.00604">
        <ele>1237.33984375</ele>
        <time>2011-08-17T08:15:40Z</time>
      </trkpt>
      <trkpt lat="48.04407" lon="7.00586">
        <ele>1238.8046875</ele>
        <time>2011-08-17T08:15:56Z</time>
      </trkpt>
      <trkpt lat="48.04383" lon="7.00568">
        <ele>1241.76171875</ele>
        <time>2011-08-17T08:16:14Z</time>
      </trkpt>
      <trkpt lat="48.04381" lon="7.00568">
        <ele>1241.96484375</ele>
        <time>2011-08-17T08:16:15Z</time>
      </trkpt>
      <trkpt lat="48.04379" lon="7.00567">
        <ele>1242.546875</ele>
        <time>2011-08-17T08:16:17Z</time>
      </trkpt>
      <trkpt lat="48.04352" lon="7.00543">
        <ele>1243.1875</ele>
        <time>2011-08-17T08:16:35Z</time>
      </trkpt>
      <trkpt lat="48.04329" lon="7.00533">
        <ele>1244.6796875</ele>
        <time>2011-08-17T08:16:48Z</time>
      </trkpt>
      <trkpt lat="48.04321" lon="7.00528">
        <ele>1245.12109375</ele>
        <time>2011-08-17T08:16:54Z</time>
      </trkpt>
      <trkpt lat="48.04307" lon="7.00522">
        <ele>1244.88671875</ele>
        <time>2011-08-17T08:17:06Z</time>
      </trkpt>
      <trkpt lat="48.04297" lon="7.0052">
        <ele>1245.3125</ele>
        <time>2011-08-17T08:17:13Z</time>
      </trkpt>
      <trkpt lat="48.04293" lon="7.0052">
        <ele>1245.48828125</ele>
        <time>2011-08-17T08:17:15Z</time>
      </trkpt>
      <trkpt lat="48.04286" lon="7.0052">
        <ele>1245.6953125</ele>
        <time>2011-08-17T08:17:18Z</time>
      </trkpt>
      <trkpt lat="48.04267" lon="7.00525">
        <ele>1247.23828125</ele>
        <time>2011-08-17T08:17:30Z</time>
      </trkpt>
      <trkpt lat="48.04242" lon="7.00538">
        <ele>1248.49609375</ele>
        <time>2011-08-17T08:17:43Z</time>
      </trkpt>
      <trkpt lat="48.04233" lon="7.00548">
        <ele>1249.6875</ele>
        <time>2011-08-17T08:17:50Z</time>
      </trkpt>
      <trkpt lat="48.04229" lon="7.00551">
        <ele>1250.03515625</ele>
        <time>2011-08-17T08:17:53Z</time>
      </trkpt>
      <trkpt lat="48.04211" lon="7.00573">
        <ele>1252.99609375</ele>
        <time>2011-08-17T08:18:07Z</time>
      </trkpt>
      <trkpt lat="48.04192" lon="7.00597">
        <ele>1255.18359375</ele>
        <time>2011-08-17T08:18:22Z</time>
      </trkpt>
      <trkpt lat="48.04174" lon="7.00619">
        <ele>1256.12109375</ele>
        <time>2011-08-17T08:18:36Z</time>
      </trkpt>
      <trkpt lat="48.04156" lon="7.00652">
        <ele>1259.16015625</ele>
        <time>2011-08-17T08:18:55Z</time>
      </trkpt>
      <trkpt lat="48.04138" lon="7.007">
        <ele>1263.11328125</ele>
        <time>2011-08-17T08:19:19Z</time>
      </trkpt>
      <trkpt lat="48.0413" lon="7.00737">
        <ele>1266.02734375</ele>
        <time>2011-08-17T08:19:36Z</time>
      </trkpt>
      <trkpt lat="48.04118" lon="7.00786">
        <ele>1268.921875</ele>
        <time>2011-08-17T08:19:57Z</time>
      </trkpt>
      <trkpt lat="48.04113" lon="7.00846">
        <ele>1272.2421875</ele>
        <time>2011-08-17T08:20:19Z</time>
      </trkpt>
      <trkpt lat="48.0411" lon="7.00894">
        <ele>1274.3203125</ele>
        <time>2011-08-17T08:20:37Z</time>
      </trkpt>
      <trkpt lat="48.04113" lon="7.00942">
        <ele>1279.3125</ele>
        <time>2011-08-17T08:20:56Z</time>
      </trkpt>
      <trkpt lat="48.04118" lon="7.00984">
        <ele>1283.671875</ele>
        <time>2011-08-17T08:21:13Z</time>
      </trkpt>
      <trkpt lat="48.04119" lon="7.00987">
        <ele>1284.03515625</ele>
        <time>2011-08-17T08:21:26Z</time>
      </trkpt>
      <trkpt lat="48.04119" lon="7.00988">
        <ele>1284.1328125</ele>
        <time>2011-08-17T08:21:35Z</time>
      </trkpt>
      <trkpt lat="48.0413" lon="7.01031">
        <ele>1290.2265625</ele>
        <time>2011-08-17T08:21:54Z</time>
      </trkpt>
      <trkpt lat="48.04133" lon="7.0108">
        <ele>1293.984375</ele>
        <time>2011-08-17T08:29:16Z</time>
      </trkpt>
      <trkpt lat="48.0413" lon="7.01078">
        <ele>1293.609375</ele>
        <time>2011-08-17T08:29:27Z</time>
      </trkpt>
      <trkpt lat="48.04124" lon="7.01078">
        <ele>1293.2890625</ele>
        <time>2011-08-17T08:29:46Z</time>
      </trkpt>
      <trkpt lat="48.04104" lon="7.01076">
        <ele>1291.7109375</ele>
        <time>2011-08-17T08:29:56Z</time>
      </trkpt>
      <trkpt lat="48.04077" lon="7.01082">
        <ele>1291.7421875</ele>
        <time>2011-08-17T08:30:09Z</time>
      </trkpt>
      <trkpt lat="48.04072" lon="7.01081">
        <ele>1291.45703125</ele>
        <time>2011-08-17T08:30:11Z</time>
      </trkpt>
      <trkpt lat="48.0404" lon="7.01095">
        <ele>1292.83984375</ele>
        <time>2011-08-17T08:30:29Z</time>
      </trkpt>
      <trkpt lat="48.04014" lon="7.01108">
        <ele>1294.30078125</ele>
        <time>2011-08-17T08:30:45Z</time>
      </trkpt>
      <trkpt lat="48.03978" lon="7.01126">
        <ele>1297.98828125</ele>
        <time>2011-08-17T08:31:05Z</time>
      </trkpt>
      <trkpt lat="48.03958" lon="7.01132">
        <ele>1299.71875</ele>
        <time>2011-08-17T08:31:16Z</time>
      </trkpt>
      <trkpt lat="48.03956" lon="7.01127">
        <ele>1298.72265625</ele>
        <time>2011-08-17T08:31:21Z</time>
      </trkpt>
      <trkpt lat="48.03965" lon="7.01096">
        <ele>1292.0078125</ele>
        <time>2011-08-17T08:31:27Z</time>
      </trkpt>
      <trkpt lat="48.03959" lon="7.0109">
        <ele>1290.75</ele>
        <time>2011-08-17T08:31:33Z</time>
      </trkpt>
      <trkpt lat="48.03921" lon="7.01089">
        <ele>1290.546875</ele>
        <time>2011-08-17T08:31:51Z</time>
      </trkpt>
      <trkpt lat="48.03907" lon="7.01091">
        <ele>1290.8984375</ele>
        <time>2011-08-17T08:31:58Z</time>
      </trkpt>
      <trkpt lat="48.03885" lon="7.0109">
        <ele>1290.24609375</ele>
        <time>2011-08-17T08:32:10Z</time>
      </trkpt>
      <trkpt lat="48.03867" lon="7.01086">
        <ele>1288.9140625</ele>
        <time>2011-08-17T08:32:18Z</time>
      </trkpt>
      <trkpt lat="48.0386" lon="7.01086">
        <ele>1288.67578125</ele>
        <time>2011-08-17T08:32:27Z</time>
      </trkpt>
      <trkpt lat="48.03838" lon="7.01084">
        <ele>1288.0859375</ele>
        <time>2011-08-17T08:32:38Z</time>
      </trkpt>
      <trkpt lat="48.03792" lon="7.01086">
        <ele>1287.28125</ele>
        <time>2011-08-17T08:32:53Z</time>
      </trkpt>
      <trkpt lat="48.03768" lon="7.01086">
        <ele>1287.328125</ele>
        <time>2011-08-17T08:33:04Z</time>
      </trkpt>
      <trkpt lat="48.03741" lon="7.01084">
        <ele>1287.015625</ele>
        <time>2011-08-17T08:33:19Z</time>
      </trkpt>
      <trkpt lat="48.03723" lon="7.01082">
        <ele>1285.9765625</ele>
        <time>2011-08-17T08:33:27Z</time>
      </trkpt>
      <trkpt lat="48.03673" lon="7.01072">
        <ele>1283.47265625</ele>
        <time>2011-08-17T08:33:44Z</time>
      </trkpt>
      <trkpt lat="48.03656" lon="7.01072">
        <ele>1282.87109375</ele>
        <time>2011-08-17T08:33:54Z</time>
      </trkpt>
      <trkpt lat="48.03653" lon="7.01074">
        <ele>1283.02734375</ele>
        <time>2011-08-17T08:34:17Z</time>
      </trkpt>
      <trkpt lat="48.0365" lon="7.01074">
        <ele>1282.87890625</ele>
        <time>2011-08-17T08:34:36Z</time>
      </trkpt>
      <trkpt lat="48.03649" lon="7.01074">
        <ele>1282.87109375</ele>
        <time>2011-08-17T08:34:37Z</time>
      </trkpt>
      <trkpt lat="48.03643" lon="7.01074">
        <ele>1282.68359375</ele>
        <time>2011-08-17T08:34:41Z</time>
      </trkpt>
      <trkpt lat="48.03603" lon="7.01101">
        <ele>1284.12109375</ele>
        <time>2011-08-17T08:35:02Z</time>
      </trkpt>
      <trkpt lat="48.03602" lon="7.01103">
        <ele>1284.265625</ele>
        <time>2011-08-17T08:35:03Z</time>
      </trkpt>
      <trkpt lat="48.03597" lon="7.01104">
        <ele>1283.98046875</ele>
        <time>2011-08-17T08:35:16Z</time>
      </trkpt>
      <trkpt lat="48.03595" lon="7.01101">
        <ele>1283.63671875</ele>
        <time>2011-08-17T08:35:36Z</time>
      </trkpt>
      <trkpt lat="48.03578" lon="7.01094">
        <ele>1281.8125</ele>
        <time>2011-08-17T08:35:41Z</time>
      </trkpt>
      <trkpt lat="48.03523" lon="7.01085">
        <ele>1277.90234375</ele>
        <time>2011-08-17T08:35:49Z</time>
      </trkpt>
      <trkpt lat="48.03493" lon="7.01061">
        <ele>1278.75390625</ele>
        <time>2011-08-17T08:35:55Z</time>
      </trkpt>
      <trkpt lat="48.03487" lon="7.01064">
        <ele>1278.74609375</ele>
        <time>2011-08-17T08:36:08Z</time>
      </trkpt>
      <trkpt lat="48.03482" lon="7.01072">
        <ele>1278.10546875</ele>
        <time>2011-08-17T08:36:18Z</time>
      </trkpt>
      <trkpt lat="48.03475" lon="7.01102">
        <ele>1272.01953125</ele>
        <time>2011-08-17T08:36:37Z</time>
      </trkpt>
      <trkpt lat="48.03473" lon="7.01102">
        <ele>1271.84375</ele>
        <time>2011-08-17T08:38:08Z</time>
      </trkpt>
      <trkpt lat="48.03444" lon="7.01071">
        <ele>1277.82421875</ele>
        <time>2011-08-17T08:38:28Z</time>
      </trkpt>
      <trkpt lat="48.03423" lon="7.01057">
        <ele>1282.03125</ele>
        <time>2011-08-17T08:38:44Z</time>
      </trkpt>
      <trkpt lat="48.03394" lon="7.01039">
        <ele>1289.890625</ele>
        <time>2011-08-17T08:39:07Z</time>
      </trkpt>
      <trkpt lat="48.03376" lon="7.01032">
        <ele>1293.9140625</ele>
        <time>2011-08-17T08:39:25Z</time>
      </trkpt>
      <trkpt lat="48.03374" lon="7.01033">
        <ele>1294.14453125</ele>
        <time>2011-08-17T08:39:32Z</time>
      </trkpt>
      <trkpt lat="48.03348" lon="7.01033">
        <ele>1298.68359375</ele>
        <time>2011-08-17T08:39:50Z</time>
      </trkpt>
      <trkpt lat="48.03315" lon="7.01054">
        <ele>1300.37890625</ele>
        <time>2011-08-17T08:40:08Z</time>
      </trkpt>
      <trkpt lat="48.03284" lon="7.01095">
        <ele>1300.73046875</ele>
        <time>2011-08-17T08:40:24Z</time>
      </trkpt>
      <trkpt lat="48.03282" lon="7.01098">
        <ele>1300.66015625</ele>
        <time>2011-08-17T08:40:34Z</time>
      </trkpt>
      <trkpt lat="48.03274" lon="7.01113">
        <ele>1300.33203125</ele>
        <time>2011-08-17T08:40:40Z</time>
      </trkpt>
      <trkpt lat="48.03265" lon="7.01138">
        <ele>1300.078125</ele>
        <time>2011-08-17T08:40:44Z</time>
      </trkpt>
      <trkpt lat="48.03253" lon="7.01174">
        <ele>1301.5234375</ele>
        <time>2011-08-17T08:40:50Z</time>
      </trkpt>
      <trkpt lat="48.0324" lon="7.01198">
        <ele>1304.0234375</ele>
        <time>2011-08-17T08:40:56Z</time>
      </trkpt>
      <trkpt lat="48.03234" lon="7.01203">
        <ele>1303.9453125</ele>
        <time>2011-08-17T08:41:10Z</time>
      </trkpt>
      <trkpt lat="48.03235" lon="7.01202">
        <ele>1303.96484375</ele>
        <time>2011-08-17T08:41:46Z</time>
      </trkpt>
      <trkpt lat="48.03236" lon="7.01204">
        <ele>1303.8046875</ele>
        <time>2011-08-17T08:41:53Z</time>
      </trkpt>
      <trkpt lat="48.03214" lon="7.01238">
        <ele>1302.7734375</ele>
        <time>2011-08-17T08:42:05Z</time>
      </trkpt>
      <trkpt lat="48.032" lon="7.01244">
        <ele>1302.94140625</ele>
        <time>2011-08-17T08:42:11Z</time>
      </trkpt>
      <trkpt lat="48.03169" lon="7.01282">
        <ele>1299.9609375</ele>
        <time>2011-08-17T08:42:21Z</time>
      </trkpt>
      <trkpt lat="48.03147" lon="7.01335">
        <ele>1289.55078125</ele>
        <time>2011-08-17T08:42:32Z</time>
      </trkpt>
      <trkpt lat="48.0314" lon="7.01351">
        <ele>1283.4765625</ele>
        <time>2011-08-17T08:42:36Z</time>
      </trkpt>
      <trkpt lat="48.03135" lon="7.01355">
        <ele>1280.484375</ele>
        <time>2011-08-17T08:42:40Z</time>
      </trkpt>
      <trkpt lat="48.03111" lon="7.01333">
        <ele>1274.671875</ele>
        <time>2011-08-17T08:42:53Z</time>
      </trkpt>
      <trkpt lat="48.03079" lon="7.01277">
        <ele>1273.75</ele>
        <time>2011-08-17T08:43:05Z</time>
      </trkpt>
      <trkpt lat="48.03073" lon="7.01262">
        <ele>1275.1953125</ele>
        <time>2011-08-17T08:43:08Z</time>
      </trkpt>
      <trkpt lat="48.03047" lon="7.01205">
        <ele>1282.26953125</ele>
        <time>2011-08-17T08:43:21Z</time>
      </trkpt>
      <trkpt lat="48.03007" lon="7.01159">
        <ele>1284.73046875</ele>
        <time>2011-08-17T08:43:34Z</time>
      </trkpt>
      <trkpt lat="48.02975" lon="7.01135">
        <ele>1285.26171875</ele>
        <time>2011-08-17T08:43:42Z</time>
      </trkpt>
      <trkpt lat="48.02963" lon="7.01121">
        <ele>1286.33203125</ele>
        <time>2011-08-17T08:43:45Z</time>
      </trkpt>
      <trkpt lat="48.02949" lon="7.01111">
        <ele>1283.515625</ele>
        <time>2011-08-17T08:43:48Z</time>
      </trkpt>
      <trkpt lat="48.02924" lon="7.01072">
        <ele>1279.17578125</ele>
        <time>2011-08-17T08:43:57Z</time>
      </trkpt>
      <trkpt lat="48.02922" lon="7.01067">
        <ele>1278.23046875</ele>
        <time>2011-08-17T08:43:58Z</time>
      </trkpt>
      <trkpt lat="48.02914" lon="7.01048">
        <ele>1275.72265625</ele>
        <time>2011-08-17T08:44:01Z</time>
      </trkpt>
      <trkpt lat="48.02907" lon="7.01024">
        <ele>1273.70703125</ele>
        <time>2011-08-17T08:44:04Z</time>
      </trkpt>
      <trkpt lat="48.02899" lon="7.0098">
        <ele>1271.24609375</ele>
        <time>2011-08-17T08:44:10Z</time>
      </trkpt>
      <trkpt lat="48.02894" lon="7.00949">
        <ele>1271.7265625</ele>
        <time>2011-08-17T08:44:15Z</time>
      </trkpt>
      <trkpt lat="48.02888" lon="7.00934">
        <ele>1272.27734375</ele>
        <time>2011-08-17T08:44:19Z</time>
      </trkpt>
      <trkpt lat="48.02885" lon="7.00932">
        <ele>1271.9296875</ele>
        <time>2011-08-17T08:44:21Z</time>
      </trkpt>
      <trkpt lat="48.02882" lon="7.00923">
        <ele>1272.9296875</ele>
        <time>2011-08-17T08:44:24Z</time>
      </trkpt>
      <trkpt lat="48.02867" lon="7.00899">
        <ele>1276.7109375</ele>
        <time>2011-08-17T08:44:36Z</time>
      </trkpt>
      <trkpt lat="48.02864" lon="7.00898">
        <ele>1276.6875</ele>
        <time>2011-08-17T08:44:49Z</time>
      </trkpt>
      <trkpt lat="48.02866" lon="7.00894">
        <ele>1277.6328125</ele>
        <time>2011-08-17T08:44:55Z</time>
      </trkpt>
      <trkpt lat="48.02867" lon="7.00886">
        <ele>1279.3984375</ele>
        <time>2011-08-17T08:45:06Z</time>
      </trkpt>
      <trkpt lat="48.02872" lon="7.00843">
        <ele>1286.06640625</ele>
        <time>2011-08-17T08:45:22Z</time>
      </trkpt>
      <trkpt lat="48.02876" lon="7.00802">
        <ele>1289.515625</ele>
        <time>2011-08-17T08:45:39Z</time>
      </trkpt>
      <trkpt lat="48.02879" lon="7.00761">
        <ele>1289.7890625</ele>
        <time>2011-08-17T08:45:56Z</time>
      </trkpt>
      <trkpt lat="48.02879" lon="7.00758">
        <ele>1289.6640625</ele>
        <time>2011-08-17T08:45:58Z</time>
      </trkpt>
      <trkpt lat="48.02874" lon="7.00752">
        <ele>1289.75</ele>
        <time>2011-08-17T08:46:05Z</time>
      </trkpt>
      <trkpt lat="48.02851" lon="7.00762">
        <ele>1291.02734375</ele>
        <time>2011-08-17T08:46:22Z</time>
      </trkpt>
      <trkpt lat="48.02837" lon="7.00766">
        <ele>1291.53515625</ele>
        <time>2011-08-17T08:46:31Z</time>
      </trkpt>
      <trkpt lat="48.02813" lon="7.00771">
        <ele>1292.25390625</ele>
        <time>2011-08-17T08:46:50Z</time>
      </trkpt>
      <trkpt lat="48.02812" lon="7.00771">
        <ele>1292.3203125</ele>
        <time>2011-08-17T08:46:52Z</time>
      </trkpt>
      <trkpt lat="48.02795" lon="7.00756">
        <ele>1293.0703125</ele>
        <time>2011-08-17T08:47:06Z</time>
      </trkpt>
      <trkpt lat="48.02791" lon="7.00753">
        <ele>1293.28125</ele>
        <time>2011-08-17T08:47:09Z</time>
      </trkpt>
      <trkpt lat="48.02783" lon="7.0075">
        <ele>1293.78125</ele>
        <time>2011-08-17T08:47:15Z</time>
      </trkpt>
      <trkpt lat="48.0278" lon="7.00747">
        <ele>1294.03515625</ele>
        <time>2011-08-17T08:47:18Z</time>
      </trkpt>
      <trkpt lat="48.02741" lon="7.0071">
        <ele>1297.984375</ele>
        <time>2011-08-17T08:47:46Z</time>
      </trkpt>
      <trkpt lat="48.02717" lon="7.00685">
        <ele>1300.6953125</ele>
        <time>2011-08-17T08:48:04Z</time>
      </trkpt>
      <trkpt lat="48.02688" lon="7.00654">
        <ele>1304.7421875</ele>
        <time>2011-08-17T08:48:28Z</time>
      </trkpt>
      <trkpt lat="48.02662" lon="7.0063">
        <ele>1306.77734375</ele>
        <time>2011-08-17T08:48:47Z</time>
      </trkpt>
      <trkpt lat="48.02637" lon="7.00608">
        <ele>1309.23046875</ele>
        <time>2011-08-17T08:49:08Z</time>
      </trkpt>
      <trkpt lat="48.02626" lon="7.00596">
        <ele>1310.203125</ele>
        <time>2011-08-17T08:49:24Z</time>
      </trkpt>
      <trkpt lat="48.02623" lon="7.00594">
        <ele>1310.2890625</ele>
        <time>2011-08-17T08:49:28Z</time>
      </trkpt>
      <trkpt lat="48.0262" lon="7.00594">
        <ele>1310.3515625</ele>
        <time>2011-08-17T08:49:32Z</time>
      </trkpt>
      <trkpt lat="48.02616" lon="7.0059">
        <ele>1310.59765625</ele>
        <time>2011-08-17T08:49:50Z</time>
      </trkpt>
      <trkpt lat="48.02599" lon="7.00565">
        <ele>1312.33203125</ele>
        <time>2011-08-17T08:50:05Z</time>
      </trkpt>
      <trkpt lat="48.02565" lon="7.00526">
        <ele>1315.6875</ele>
        <time>2011-08-17T08:50:30Z</time>
      </trkpt>
      <trkpt lat="48.02537" lon="7.00495">
        <ele>1318.921875</ele>
        <time>2011-08-17T08:50:50Z</time>
      </trkpt>
      <trkpt lat="48.02504" lon="7.00459">
        <ele>1321.23828125</ele>
        <time>2011-08-17T08:51:14Z</time>
      </trkpt>
      <trkpt lat="48.02479" lon="7.00434">
        <ele>1323.4609375</ele>
        <time>2011-08-17T08:51:33Z</time>
      </trkpt>
      <trkpt lat="48.02448" lon="7.00401">
        <ele>1326.4453125</ele>
        <time>2011-08-17T08:51:56Z</time>
      </trkpt>
      <trkpt lat="48.02406" lon="7.00354">
        <ele>1330.78125</ele>
        <time>2011-08-17T08:52:23Z</time>
      </trkpt>
      <trkpt lat="48.02368" lon="7.00312">
        <ele>1332.796875</ele>
        <time>2011-08-17T08:52:49Z</time>
      </trkpt>
      <trkpt lat="48.02333" lon="7.00273">
        <ele>1336.68359375</ele>
        <time>2011-08-17T08:53:16Z</time>
      </trkpt>
      <trkpt lat="48.02307" lon="7.00244">
        <ele>1340.09765625</ele>
        <time>2011-08-17T08:53:36Z</time>
      </trkpt>
      <trkpt lat="48.02275" lon="7.00209">
        <ele>1341.7734375</ele>
        <time>2011-08-17T08:53:59Z</time>
      </trkpt>
      <trkpt lat="48.02266" lon="7.002">
        <ele>1342</ele>
        <time>2011-08-17T08:54:05Z</time>
      </trkpt>
      <trkpt lat="48.02237" lon="7.00185">
        <ele>1341.87109375</ele>
        <time>2011-08-17T08:54:23Z</time>
      </trkpt>
      <trkpt lat="48.02197" lon="7.00174">
        <ele>1341</ele>
        <time>2011-08-17T08:54:43Z</time>
      </trkpt>
      <trkpt lat="48.0218" lon="7.0014">
        <ele>1341.19921875</ele>
        <time>2011-08-17T08:54:57Z</time>
      </trkpt>
      <trkpt lat="48.02153" lon="7.00077">
        <ele>1342</ele>
        <time>2011-08-17T08:55:15Z</time>
      </trkpt>
      <trkpt lat="48.02122" lon="7.00007">
        <ele>1342</ele>
        <time>2011-08-17T08:55:35Z</time>
      </trkpt>
      <trkpt lat="48.02115" lon="6.99993">
        <ele>1342</ele>
        <time>2011-08-17T08:55:40Z</time>
      </trkpt>
      <trkpt lat="48.02115" lon="6.99984">
        <ele>1342</ele>
        <time>2011-08-17T08:55:43Z</time>
      </trkpt>
      <trkpt lat="48.02114" lon="6.99982">
        <ele>1342</ele>
        <time>2011-08-17T08:56:02Z</time>
      </trkpt>
      <trkpt lat="48.02114" lon="6.99982">
        <ele>1342</ele>
        <time>2011-08-17T08:56:46Z</time>
      </trkpt>
      <trkpt lat="48.02115" lon="6.9998">
        <ele>1342</ele>
        <time>2011-08-17T08:57:51Z</time>
      </trkpt>
      <trkpt lat="48.02115" lon="6.9998">
        <ele>1342</ele>
        <time>2011-08-17T08:58:14Z</time>
      </trkpt>
      <trkpt lat="48.0212" lon="6.99931">
        <ele>1342</ele>
        <time>2011-08-17T08:58:26Z</time>
      </trkpt>
      <trkpt lat="48.02127" lon="6.99852">
        <ele>1339.9296875</ele>
        <time>2011-08-17T08:58:38Z</time>
      </trkpt>
      <trkpt lat="48.02136" lon="6.99765">
        <ele>1331.76953125</ele>
        <time>2011-08-17T08:58:49Z</time>
      </trkpt>
      <trkpt lat="48.02139" lon="6.99733">
        <ele>1327.2734375</ele>
        <time>2011-08-17T08:58:53Z</time>
      </trkpt>
      <trkpt lat="48.02125" lon="6.99643">
        <ele>1313.71484375</ele>
        <time>2011-08-17T08:59:05Z</time>
      </trkpt>
      <trkpt lat="48.02114" lon="6.99588">
        <ele>1305.93359375</ele>
        <time>2011-08-17T08:59:15Z</time>
      </trkpt>
      <trkpt lat="48.02113" lon="6.99581">
        <ele>1304.88671875</ele>
        <time>2011-08-17T08:59:16Z</time>
      </trkpt>
      <trkpt lat="48.02109" lon="6.99564">
        <ele>1302.45703125</ele>
        <time>2011-08-17T08:59:19Z</time>
      </trkpt>
      <trkpt lat="48.02095" lon="6.99489">
        <ele>1292.7734375</ele>
        <time>2011-08-17T08:59:31Z</time>
      </trkpt>
      <trkpt lat="48.02093" lon="6.99465">
        <ele>1289.40234375</ele>
        <time>2011-08-17T08:59:40Z</time>
      </trkpt>
      <trkpt lat="48.02086" lon="6.9943">
        <ele>1285.46875</ele>
        <time>2011-08-17T08:59:50Z</time>
      </trkpt>
      <trkpt lat="48.02075" lon="6.99367">
        <ele>1278.703125</ele>
        <time>2011-08-17T09:00:02Z</time>
      </trkpt>
      <trkpt lat="48.02025" lon="6.99408">
        <ele>1227.1484375</ele>
      </trkpt>
      <trkpt lat="48.01911" lon="6.99617">
        <ele>1238.08203125</ele>
      </trkpt>
      <trkpt lat="48.01827" lon="6.99764">
        <ele>1245.62890625</ele>
      </trkpt>
      <trkpt lat="48.01779" lon="6.99866">
        <ele>1234.7734375</ele>
      </trkpt>
      <trkpt lat="48.01764" lon="6.99962">
        <ele>1234.1015625</ele>
      </trkpt>
      <trkpt lat="48.01761" lon="7.00137">
        <ele>1222.703125</ele>
      </trkpt>
      <trkpt lat="48.01777" lon="7.00331">
        <ele>1210.97265625</ele>
      </trkpt>
      <trkpt lat="48.01761" lon="7.00425">
        <ele>1206.14453125</ele>
      </trkpt>
      <trkpt lat="48.01691" lon="7.0055">
        <ele>1192.6328125</ele>
      </trkpt>
      <trkpt lat="48.01652" lon="7.00644">
        <ele>1186.6484375</ele>
      </trkpt>
      <trkpt lat="48.01646" lon="7.00761">
        <ele>1187.04296875</ele>
      </trkpt>
      <trkpt lat="48.01637" lon="7.00902">
        <ele>1175.7734375</ele>
      </trkpt>
      <trkpt lat="48.01614" lon="7.01014">
        <ele>1169.6015625</ele>
      </trkpt>
      <trkpt lat="48.01549" lon="7.01166">
        <ele>1170.328125</ele>
      </trkpt>
      <trkpt lat="48.01501" lon="7.01226">
        <ele>1162.17578125</ele>
      </trkpt>
      <trkpt lat="48.01525" lon="7.01323">
        <ele>1157.96875</ele>
      </trkpt>
      <trkpt lat="48.01591" lon="7.01413">
        <ele>1148.4609375</ele>
      </trkpt>
      <trkpt lat="48.01645" lon="7.01479">
        <ele>1143.078125</ele>
      </trkpt>
      <trkpt lat="48.01692" lon="7.01577">
        <ele>1124.68359375</ele>
      </trkpt>
      <trkpt lat="48.0176" lon="7.01719">
        <ele>1104.34765625</ele>
      </trkpt>
      <trkpt lat="48.01774" lon="7.01749">
        <ele>1098.078125</ele>
      </trkpt>
      <trkpt lat="48.01758" lon="7.01779">
        <ele>1080.59375</ele>
      </trkpt>
      <trkpt lat="48.01766" lon="7.01795">
        <ele>1077.578125</ele>
      </trkpt>
      <trkpt lat="48.01794" lon="7.01833">
        <ele>1074.0859375</ele>
      </trkpt>
      <trkpt lat="48.01803" lon="7.01847">
        <ele>1071.625</ele>
      </trkpt>
      <trkpt lat="48.01793" lon="7.01886">
        <ele>1064.79296875</ele>
      </trkpt>
      <trkpt lat="48.01782" lon="7.01878">
        <ele>1063.91796875</ele>
      </trkpt>
      <trkpt lat="48.01766" lon="7.01899">
        <ele>1058.80859375</ele>
      </trkpt>
      <trkpt lat="48.01763" lon="7.01926">
        <ele>1055.5</ele>
      </trkpt>
      <trkpt lat="48.01779" lon="7.01961">
        <ele>1053.49609375</ele>
      </trkpt>
      <trkpt lat="48.01802" lon="7.01981">
        <ele>1051.89453125</ele>
      </trkpt>
      <trkpt lat="48.0183" lon="7.01986">
        <ele>1051.48046875</ele>
      </trkpt>
      <trkpt lat="48.01862" lon="7.01983">
        <ele>1050.46875</ele>
      </trkpt>
      <trkpt lat="48.01878" lon="7.01982">
        <ele>1049.48828125</ele>
      </trkpt>
      <trkpt lat="48.01901" lon="7.01996">
        <ele>1045.09375</ele>
      </trkpt>
      <trkpt lat="48.01916" lon="7.02">
        <ele>1043.30859375</ele>
      </trkpt>
      <trkpt lat="48.01939" lon="7.02015">
        <ele>1040.03125</ele>
      </trkpt>
      <trkpt lat="48.01953" lon="7.02016">
        <ele>1039.421875</ele>
      </trkpt>
      <trkpt lat="48.01939" lon="7.02029">
        <ele>1036.90234375</ele>
      </trkpt>
      <trkpt lat="48.01924" lon="7.02039">
        <ele>1034.453125</ele>
      </trkpt>
      <trkpt lat="48.019" lon="7.02049">
        <ele>1031.70703125</ele>
      </trkpt>
      <trkpt lat="48.01858" lon="7.02058">
        <ele>1031.21875</ele>
      </trkpt>
      <trkpt lat="48.01833" lon="7.02088">
        <ele>1023.8828125</ele>
      </trkpt>
      <trkpt lat="48.01817" lon="7.02109">
        <ele>1018.30859375</ele>
      </trkpt>
      <trkpt lat="48.01795" lon="7.02131">
        <ele>1012.8671875</ele>
      </trkpt>
      <trkpt lat="48.01773" lon="7.02153">
        <ele>1005.671875</ele>
      </trkpt>
      <trkpt lat="48.01756" lon="7.0216">
        <ele>1003.2578125</ele>
      </trkpt>
      <trkpt lat="48.01786" lon="7.02168">
        <ele>997.6015625</ele>
      </trkpt>
      <trkpt lat="48.01808" lon="7.02165">
        <ele>995.40234375</ele>
      </trkpt>
      <trkpt lat="48.0182" lon="7.02177">
        <ele>987.28515625</ele>
      </trkpt>
      <trkpt lat="48.0184" lon="7.02185">
        <ele>979.93359375</ele>
      </trkpt>
      <trkpt lat="48.01851" lon="7.02193">
        <ele>973.8671875</ele>
      </trkpt>
      <trkpt lat="48.01844" lon="7.02233">
        <ele>955.14453125</ele>
      </trkpt>
      <trkpt lat="48.01809" lon="7.02249">
        <ele>951.47265625</ele>
      </trkpt>
      <trkpt lat="48.01758" lon="7.02286">
        <ele>943.5</ele>
      </trkpt>
      <trkpt lat="48.01721" lon="7.02313">
        <ele>939.37109375</ele>
      </trkpt>
      <trkpt lat="48.01707" lon="7.02337">
        <ele>932.9140625</ele>
      </trkpt>
      <trkpt lat="48.01667" lon="7.02357">
        <ele>932.9375</ele>
      </trkpt>
      <trkpt lat="48.01636" lon="7.02374">
        <ele>933.5703125</ele>
      </trkpt>
      <trkpt lat="48.01582" lon="7.02399">
        <ele>939.30859375</ele>
      </trkpt>
      <trkpt lat="48.01551" lon="7.0243">
        <ele>940.984375</ele>
      </trkpt>
      <trkpt lat="48.01534" lon="7.0249">
        <ele>929.20703125</ele>
      </trkpt>
      <trkpt lat="48.01492" lon="7.02518">
        <ele>925.3046875</ele>
      </trkpt>
      <trkpt lat="48.01449" lon="7.02552">
        <ele>911.0703125</ele>
      </trkpt>
      <trkpt lat="48.01416" lon="7.02565">
        <ele>901.61328125</ele>
      </trkpt>
      <trkpt lat="48.01382" lon="7.02576">
        <ele>890.08203125</ele>
      </trkpt>
      <trkpt lat="48.01362" lon="7.02576">
        <ele>883.3359375</ele>
      </trkpt>
      <trkpt lat="48.01352" lon="7.0254">
        <ele>879.09765625</ele>
      </trkpt>
      <trkpt lat="48.01376" lon="7.02454">
        <ele>881.55859375</ele>
      </trkpt>
      <trkpt lat="48.01387" lon="7.02401">
        <ele>878.83984375</ele>
      </trkpt>
      <trkpt lat="48.01393" lon="7.02352">
        <ele>875.14453125</ele>
      </trkpt>
      <trkpt lat="48.01374" lon="7.02375">
        <ele>868.54296875</ele>
      </trkpt>
      <trkpt lat="48.01363" lon="7.0242">
        <ele>869.07421875</ele>
      </trkpt>
      <trkpt lat="48.01346" lon="7.02446">
        <ele>864.41796875</ele>
      </trkpt>
      <trkpt lat="48.01323" lon="7.02488">
        <ele>858.09765625</ele>
      </trkpt>
      <trkpt lat="48.01318" lon="7.02545">
        <ele>861.4375</ele>
      </trkpt>
      <trkpt lat="48.01314" lon="7.02578">
        <ele>860.3359375</ele>
      </trkpt>
      <trkpt lat="48.01319" lon="7.02615">
        <ele>862.92578125</ele>
      </trkpt>
      <trkpt lat="48.01327" lon="7.02626">
        <ele>865.95703125</ele>
      </trkpt>
      <trkpt lat="48.01351" lon="7.02635">
        <ele>872.37890625</ele>
      </trkpt>
      <trkpt lat="48.01395" lon="7.02638">
        <ele>877.58203125</ele>
      </trkpt>
      <trkpt lat="48.01444" lon="7.02637">
        <ele>877.34765625</ele>
      </trkpt>
      <trkpt lat="48.01508" lon="7.02621">
        <ele>876.0546875</ele>
      </trkpt>
      <trkpt lat="48.01578" lon="7.02575">
        <ele>877.546875</ele>
      </trkpt>
      <trkpt lat="48.01646" lon="7.02511">
        <ele>876.41796875</ele>
      </trkpt>
      <trkpt lat="48.01685" lon="7.02505">
        <ele>863.36328125</ele>
      </trkpt>
      <trkpt lat="48.01726" lon="7.02502">
        <ele>856.85546875</ele>
      </trkpt>
      <trkpt lat="48.01771" lon="7.02576">
        <ele>828.36328125</ele>
      </trkpt>
      <trkpt lat="48.01837" lon="7.0261">
        <ele>827.0625</ele>
      </trkpt>
      <trkpt lat="48.01902" lon="7.0263">
        <ele>816.9453125</ele>
      </trkpt>
      <trkpt lat="48.01965" lon="7.02619">
        <ele>816.07421875</ele>
      </trkpt>
      <trkpt lat="48.02005" lon="7.02593">
        <ele>821.2109375</ele>
      </trkpt>
      <trkpt lat="48.02054" lon="7.02558">
        <ele>823.8125</ele>
      </trkpt>
      <trkpt lat="48.02091" lon="7.02559">
        <ele>813.76171875</ele>
      </trkpt>
      <trkpt lat="48.0213" lon="7.02587">
        <ele>796.13671875</ele>
      </trkpt>
      <trkpt lat="48.02166" lon="7.02565">
        <ele>794.125</ele>
      </trkpt>
      <trkpt lat="48.02199" lon="7.02532">
        <ele>790.1640625</ele>
      </trkpt>
      <trkpt lat="48.02213" lon="7.02457">
        <ele>807.25390625</ele>
      </trkpt>
      <trkpt lat="48.02238" lon="7.02441">
        <ele>805.09765625</ele>
      </trkpt>
      <trkpt lat="48.0227" lon="7.02419">
        <ele>803.703125</ele>
      </trkpt>
      <trkpt lat="48.02289" lon="7.0239">
        <ele>808.72265625</ele>
      </trkpt>
      <trkpt lat="48.02299" lon="7.02385">
        <ele>805.91796875</ele>
      </trkpt>
      <trkpt lat="48.02323" lon="7.02394">
        <ele>793.7578125</ele>
      </trkpt>
      <trkpt lat="48.02338" lon="7.02417">
        <ele>786.0234375</ele>
      </trkpt>
      <trkpt lat="48.02353" lon="7.02449">
        <ele>782.62890625</ele>
      </trkpt>
      <trkpt lat="48.02362" lon="7.02516">
        <ele>779.21484375</ele>
      </trkpt>
      <trkpt lat="48.0236" lon="7.02561">
        <ele>774.52734375</ele>
      </trkpt>
      <trkpt lat="48.02345" lon="7.02646">
        <ele>762.8046875</ele>
      </trkpt>
      <trkpt lat="48.02332" lon="7.02679">
        <ele>758.296875</ele>
      </trkpt>
      <trkpt lat="48.02293" lon="7.02736">
        <ele>748.6171875</ele>
      </trkpt>
      <trkpt lat="48.02285" lon="7.02815">
        <ele>751.00390625</ele>
      </trkpt>
      <trkpt lat="48.02255" lon="7.02869">
        <ele>747.21875</ele>
      </trkpt>
      <trkpt lat="48.02211" lon="7.02894">
        <ele>726.3046875</ele>
      </trkpt>
      <trkpt lat="48.02195" lon="7.02948">
        <ele>717.19921875</ele>
      </trkpt>
      <trkpt lat="48.02189" lon="7.02983">
        <ele>712.78125</ele>
      </trkpt>
      <trkpt lat="48.02177" lon="7.03042">
        <ele>709.97265625</ele>
      </trkpt>
      <trkpt lat="48.02159" lon="7.03079">
        <ele>703.0859375</ele>
      </trkpt>
      <trkpt lat="48.02145" lon="7.0314">
        <ele>710.35546875</ele>
      </trkpt>
      <trkpt lat="48.02106" lon="7.03202">
        <ele>697.28125</ele>
      </trkpt>
      <trkpt lat="48.02068" lon="7.03273">
        <ele>690.8515625</ele>
      </trkpt>
      <trkpt lat="48.02035" lon="7.03326">
        <ele>687.73046875</ele>
      </trkpt>
      <trkpt lat="48.01984" lon="7.03391">
        <ele>693.03515625</ele>
      </trkpt>
      <trkpt lat="48.01941" lon="7.03439">
        <ele>698.9921875</ele>
      </trkpt>
      <trkpt lat="48.01888" lon="7.03478">
        <ele>693.515625</ele>
      </trkpt>
      <trkpt lat="48.01858" lon="7.03498">
        <ele>687.5078125</ele>
      </trkpt>
      <trkpt lat="48.01824" lon="7.03517">
        <ele>677.1953125</ele>
      </trkpt>
      <trkpt lat="48.01799" lon="7.03538">
        <ele>665.3125</ele>
      </trkpt>
      <trkpt lat="48.0176" lon="7.03601">
        <ele>661.828125</ele>
      </trkpt>
      <trkpt lat="48.01707" lon="7.03615">
        <ele>653.61328125</ele>
      </trkpt>
      <trkpt lat="48.01658" lon="7.03621">
        <ele>641.23046875</ele>
      </trkpt>
      <trkpt lat="48.01602" lon="7.03682">
        <ele>638.83984375</ele>
      </trkpt>
      <trkpt lat="48.01533" lon="7.03756">
        <ele>626.18359375</ele>
      </trkpt>
      <trkpt lat="48.0149" lon="7.03818">
        <ele>627.41015625</ele>
      </trkpt>
      <trkpt lat="48.01407" lon="7.03911">
        <ele>628.6953125</ele>
      </trkpt>
      <trkpt lat="48.01334" lon="7.0395">
        <ele>618.14453125</ele>
      </trkpt>
      <trkpt lat="48.01264" lon="7.03996">
        <ele>611.921875</ele>
      </trkpt>
      <trkpt lat="48.01213" lon="7.04033">
        <ele>611.65234375</ele>
      </trkpt>
      <trkpt lat="48.01135" lon="7.04068">
        <ele>597.8984375</ele>
      </trkpt>
      <trkpt lat="48.01061" lon="7.04099">
        <ele>574.69140625</ele>
      </trkpt>
      <trkpt lat="48.01023" lon="7.0417">
        <ele>570.171875</ele>
      </trkpt>
      <trkpt lat="48.00988" lon="7.04248">
        <ele>558.67578125</ele>
      </trkpt>
      <trkpt lat="48.00984" lon="7.04342">
        <ele>556.078125</ele>
      </trkpt>
      <trkpt lat="48.00988" lon="7.04413">
        <ele>554.0390625</ele>
      </trkpt>
      <trkpt lat="48.00989" lon="7.04531">
        <ele>542.3125</ele>
      </trkpt>
      <trkpt lat="48.01004" lon="7.04597">
        <ele>540.33203125</ele>
      </trkpt>
      <trkpt lat="48.01021" lon="7.04688">
        <ele>533.09765625</ele>
      </trkpt>
      <trkpt lat="48.0104" lon="7.04783">
        <ele>527.21484375</ele>
      </trkpt>
      <trkpt lat="48.01043" lon="7.04884">
        <ele>515.53515625</ele>
      </trkpt>
      <trkpt lat="48.0106" lon="7.04981">
        <ele>511.7578125</ele>
      </trkpt>
      <trkpt lat="48.01078" lon="7.05095">
        <ele>507.44921875</ele>
      </trkpt>
      <trkpt lat="48.01098" lon="7.05185">
        <ele>506.765625</ele>
      </trkpt>
      <trkpt lat="48.011" lon="7.0523">
        <ele>504</ele>
      </trkpt>
      <trkpt lat="48.01078" lon="7.05205">
        <ele>501.015625</ele>
      </trkpt>
      <trkpt lat="48.01066" lon="7.05165">
        <ele>501.59765625</ele>
      </trkpt>
      <trkpt lat="48.01043" lon="7.05055">
        <ele>502.7578125</ele>
      </trkpt>
      <trkpt lat="48.01014" lon="7.04941">
        <ele>502.66796875</ele>
      </trkpt>
      <trkpt lat="48.00987" lon="7.0485">
        <ele>503.48046875</ele>
      </trkpt>
      <trkpt lat="48.0096" lon="7.04792">
        <ele>501.88671875</ele>
      </trkpt>
      <trkpt lat="48.00949" lon="7.04742">
        <ele>504.97265625</ele>
      </trkpt>
      <trkpt lat="48.0094" lon="7.04675">
        <ele>509.92578125</ele>
      </trkpt>
      <trkpt lat="48.0092" lon="7.046">
        <ele>513.41015625</ele>
      </trkpt>
      <trkpt lat="48.00906" lon="7.04529">
        <ele>513.34375</ele>
      </trkpt>
      <trkpt lat="48.00891" lon="7.04449">
        <ele>514.390625</ele>
      </trkpt>
      <trkpt lat="48.00887" lon="7.04401">
        <ele>516.63671875</ele>
      </trkpt>
      <trkpt lat="48.00884" lon="7.04352">
        <ele>518.484375</ele>
      </trkpt>
      <trkpt lat="48.00881" lon="7.04312">
        <ele>519.78125</ele>
      </trkpt>
      <trkpt lat="48.00851" lon="7.04271">
        <ele>518.765625</ele>
      </trkpt>
      <trkpt lat="48.00838" lon="7.0425">
        <ele>519.03125</ele>
      </trkpt>
      <trkpt lat="48.00838" lon="7.04208">
        <ele>519.50390625</ele>
      </trkpt>
      <trkpt lat="48.00817" lon="7.04219">
        <ele>519.45703125</ele>
      </trkpt>
      <trkpt lat="48.00798" lon="7.04215">
        <ele>520.74609375</ele>
      </trkpt>
      <trkpt lat="48.00789" lon="7.04134">
        <ele>520.46484375</ele>
      </trkpt>
      <trkpt lat="48.0078" lon="7.04134">
        <ele>520.73046875</ele>
      </trkpt>
      <trkpt lat="48.00757" lon="7.04086">
        <ele>521.2421875</ele>
      </trkpt>
      <trkpt lat="48.00741" lon="7.04026">
        <ele>521.61328125</ele>
      </trkpt>
      <trkpt lat="48.00734" lon="7.0399">
        <ele>521.72265625</ele>
      </trkpt>
      <trkpt lat="48.00724" lon="7.03901">
        <ele>523.86328125</ele>
      </trkpt>
      <trkpt lat="48.0072" lon="7.03872">
        <ele>524.51171875</ele>
      </trkpt>
      <trkpt lat="48.0071" lon="7.0381">
        <ele>525</ele>
      </trkpt>
      <trkpt lat="48.00677" lon="7.03782">
        <ele>523.09375</ele>
      </trkpt>
      <trkpt lat="48.00669" lon="7.03704">
        <ele>526.02734375</ele>
      </trkpt>
      <trkpt lat="48.00629" lon="7.03668">
        <ele>523.44140625</ele>
      </trkpt>
      <trkpt lat="48.00588" lon="7.03596">
        <ele>523.1875</ele>
      </trkpt>
      <trkpt lat="48.00569" lon="7.0352">
        <ele>527.0078125</ele>
      </trkpt>
      <trkpt lat="48.00504" lon="7.03433">
        <ele>527.40234375</ele>
      </trkpt>
      <trkpt lat="48.00476" lon="7.03395">
        <ele>528.15234375</ele>
      </trkpt>
      <trkpt lat="48.00437" lon="7.03354">
        <ele>528.83203125</ele>
      </trkpt>
      <trkpt lat="48.00428" lon="7.03301">
        <ele>529.51171875</ele>
      </trkpt>
      <trkpt lat="48.00387" lon="7.0336">
        <ele>529.35546875</ele>
      </trkpt>
      <trkpt lat="48.0028" lon="7.03155">
        <ele>536.27734375</ele>
      </trkpt>
      <trkpt lat="48.00246" lon="7.03132">
        <ele>538.71875</ele>
      </trkpt>
      <trkpt lat="48.00174" lon="7.03099">
        <ele>550.14453125</ele>
      </trkpt>
      <trkpt lat="48.00137" lon="7.0309">
        <ele>558.25</ele>
      </trkpt>
      <trkpt lat="48.00189" lon="7.02986">
        <ele>573.70703125</ele>
      </trkpt>
      <trkpt lat="48.00257" lon="7.02956">
        <ele>558.76171875</ele>
      </trkpt>
      <trkpt lat="48.00311" lon="7.0292">
        <ele>554.3671875</ele>
      </trkpt>
      <trkpt lat="48.00353" lon="7.02836">
        <ele>563.3984375</ele>
      </trkpt>
      <trkpt lat="48.0038" lon="7.02742">
        <ele>568.578125</ele>
      </trkpt>
      <trkpt lat="48.00374" lon="7.02654">
        <ele>574.97265625</ele>
      </trkpt>
      <trkpt lat="48.0036" lon="7.02555">
        <ele>576.12890625</ele>
      </trkpt>
      <trkpt lat="48.00355" lon="7.02469">
        <ele>573.546875</ele>
      </trkpt>
      <trkpt lat="48.00355" lon="7.02374">
        <ele>575.515625</ele>
      </trkpt>
      <trkpt lat="48.0038" lon="7.02288">
        <ele>582.90625</ele>
      </trkpt>
      <trkpt lat="48.00425" lon="7.02224">
        <ele>581.89453125</ele>
      </trkpt>
      <trkpt lat="48.00469" lon="7.0218">
        <ele>577.3046875</ele>
      </trkpt>
      <trkpt lat="48.00516" lon="7.02128">
        <ele>573.04296875</ele>
      </trkpt>
      <trkpt lat="48.00526" lon="7.02024">
        <ele>580.2890625</ele>
      </trkpt>
      <trkpt lat="48.00503" lon="7.01929">
        <ele>591.671875</ele>
      </trkpt>
      <trkpt lat="48.00485" lon="7.01857">
        <ele>598.1796875</ele>
      </trkpt>
      <trkpt lat="48.00474" lon="7.01758">
        <ele>599.046875</ele>
      </trkpt>
      <trkpt lat="48.00454" lon="7.01675">
        <ele>603.296875</ele>
      </trkpt>
      <trkpt lat="48.00416" lon="7.01589">
        <ele>607.63671875</ele>
      </trkpt>
      <trkpt lat="48.00376" lon="7.01511">
        <ele>613.21875</ele>
      </trkpt>
      <trkpt lat="48.00326" lon="7.01447">
        <ele>620.3125</ele>
      </trkpt>
      <trkpt lat="48.00295" lon="7.0135">
        <ele>622.796875</ele>
      </trkpt>
      <trkpt lat="48.00246" lon="7.01247">
        <ele>632.828125</ele>
      </trkpt>
      <trkpt lat="48.00221" lon="7.0114">
        <ele>633.671875</ele>
      </trkpt>
      <trkpt lat="48.00197" lon="7.01069">
        <ele>640.5234375</ele>
      </trkpt>
      <trkpt lat="48.00186" lon="7.0099">
        <ele>643.28515625</ele>
      </trkpt>
      <trkpt lat="48.00175" lon="7.00873">
        <ele>649.66796875</ele>
      </trkpt>
      <trkpt lat="48.0016" lon="7.00793">
        <ele>656.21484375</ele>
      </trkpt>
      <trkpt lat="48.00131" lon="7.00718">
        <ele>665.60546875</ele>
      </trkpt>
      <trkpt lat="48.00089" lon="7.00637">
        <ele>684.8828125</ele>
      </trkpt>
      <trkpt lat="48.00062" lon="7.0056">
        <ele>694.96484375</ele>
      </trkpt>
      <trkpt lat="48.00038" lon="7.00475">
        <ele>699.63671875</ele>
      </trkpt>
      <trkpt lat="48.00019" lon="7.00409">
        <ele>699.609375</ele>
      </trkpt>
      <trkpt lat="48.00004" lon="7.00362">
        <ele>699.4296875</ele>
      </trkpt>
      <trkpt lat="47.9998" lon="7.00334">
        <ele>705.3984375</ele>
      </trkpt>
      <trkpt lat="47.99948" lon="7.00314">
        <ele>716.796875</ele>
      </trkpt>
      <trkpt lat="47.99914" lon="7.00273">
        <ele>732.671875</ele>
      </trkpt>
      <trkpt lat="47.9988" lon="7.00278">
        <ele>740.2890625</ele>
      </trkpt>
      <trkpt lat="47.99839" lon="7.00267">
        <ele>751.3203125</ele>
      </trkpt>
      <trkpt lat="47.99822" lon="7.00175">
        <ele>772.95703125</ele>
      </trkpt>
      <trkpt lat="47.99818" lon="7.00146">
        <ele>778.046875</ele>
      </trkpt>
      <trkpt lat="47.99781" lon="7.00083">
        <ele>793.5234375</ele>
      </trkpt>
      <trkpt lat="47.99761" lon="7.00028">
        <ele>805.1328125</ele>
      </trkpt>
      <trkpt lat="47.99746" lon="6.99943">
        <ele>818.80078125</ele>
      </trkpt>
      <trkpt lat="47.99736" lon="6.99906">
        <ele>823.5</ele>
      </trkpt>
      <trkpt lat="47.99738" lon="6.99884">
        <ele>825.04296875</ele>
      </trkpt>
      <trkpt lat="47.99726" lon="6.99836">
        <ele>831.875</ele>
      </trkpt>
      <trkpt lat="47.99711" lon="6.99792">
        <ele>837.640625</ele>
      </trkpt>
      <trkpt lat="47.99701" lon="6.99772">
        <ele>839.7265625</ele>
      </trkpt>
      <trkpt lat="47.99691" lon="6.99736">
        <ele>841.6015625</ele>
      </trkpt>
      <trkpt lat="47.99673" lon="6.99708">
        <ele>842.23046875</ele>
      </trkpt>
      <trkpt lat="47.99662" lon="6.99669">
        <ele>842.9765625</ele>
      </trkpt>
      <trkpt lat="47.99655" lon="6.99638">
        <ele>844.98828125</ele>
      </trkpt>
      <trkpt lat="47.99648" lon="6.996">
        <ele>849.0859375</ele>
      </trkpt>
      <trkpt lat="47.99643" lon="6.99574">
        <ele>852.24609375</ele>
      </trkpt>
      <trkpt lat="47.99649" lon="6.99561">
        <ele>855.8671875</ele>
      </trkpt>
      <trkpt lat="47.99671" lon="6.99573">
        <ele>858.0390625</ele>
      </trkpt>
      <trkpt lat="47.99696" lon="6.99588">
        <ele>862.13671875</ele>
      </trkpt>
      <trkpt lat="47.99727" lon="6.9961">
        <ele>866.6796875</ele>
      </trkpt>
      <trkpt lat="47.99771" lon="6.99647">
        <ele>875.26953125</ele>
      </trkpt>
      <trkpt lat="47.99804" lon="6.99689">
        <ele>879.27734375</ele>
      </trkpt>
      <trkpt lat="47.99828" lon="6.99719">
        <ele>880.2421875</ele>
      </trkpt>
      <trkpt lat="47.99831" lon="6.99705">
        <ele>882.8671875</ele>
      </trkpt>
      <trkpt lat="47.99823" lon="6.99635">
        <ele>893.41796875</ele>
      </trkpt>
      <trkpt lat="47.99797" lon="6.99542">
        <ele>900.3359375</ele>
      </trkpt>
      <trkpt lat="47.99786" lon="6.99513">
        <ele>902.796875</ele>
      </trkpt>
      <trkpt lat="47.997" lon="6.99307">
        <ele>935.49609375</ele>
      </trkpt>
      <trkpt lat="47.99708" lon="6.99304">
        <ele>939.2421875</ele>
      </trkpt>
      <trkpt lat="47.99758" lon="6.99333">
        <ele>945.1015625</ele>
      </trkpt>
      <trkpt lat="47.99762" lon="6.99316">
        <ele>951.8984375</ele>
      </trkpt>
      <trkpt lat="47.99725" lon="6.99274">
        <ele>955.17578125</ele>
      </trkpt>
      <trkpt lat="47.99739" lon="6.99276">
        <ele>958.703125</ele>
      </trkpt>
      <trkpt lat="47.99816" lon="6.99333">
        <ele>962.04296875</ele>
      </trkpt>
      <trkpt lat="47.9985" lon="6.99336">
        <ele>968.7265625</ele>
      </trkpt>
      <trkpt lat="47.9983" lon="6.99304">
        <ele>973.546875</ele>
      </trkpt>
      <trkpt lat="47.99851" lon="6.99303">
        <ele>977.0625</ele>
      </trkpt>
      <trkpt lat="47.99845" lon="6.99249">
        <ele>988.578125</ele>
      </trkpt>
      <trkpt lat="47.99838" lon="6.99207">
        <ele>997.7734375</ele>
      </trkpt>
      <trkpt lat="47.99827" lon="6.99173">
        <ele>1005.109375</ele>
      </trkpt>
      <trkpt lat="47.99815" lon="6.99162">
        <ele>1006.984375</ele>
      </trkpt>
      <trkpt lat="47.99803" lon="6.99141">
        <ele>1011.63671875</ele>
      </trkpt>
      <trkpt lat="47.99771" lon="6.99127">
        <ele>1012.72265625</ele>
      </trkpt>
      <trkpt lat="47.99743" lon="6.99099">
        <ele>1018.76171875</ele>
      </trkpt>
      <trkpt lat="47.99701" lon="6.99066">
        <ele>1026.6953125</ele>
      </trkpt>
      <trkpt lat="47.99666" lon="6.99058">
        <ele>1025.92578125</ele>
      </trkpt>
      <trkpt lat="47.99646" lon="6.99065">
        <ele>1020.640625</ele>
      </trkpt>
      <trkpt lat="47.996" lon="6.99032">
        <ele>1025.5859375</ele>
      </trkpt>
      <trkpt lat="47.9956" lon="6.98995">
        <ele>1027.6484375</ele>
      </trkpt>
      <trkpt lat="47.99523" lon="6.98946">
        <ele>1033.53125</ele>
      </trkpt>
      <trkpt lat="47.99499" lon="6.98927">
        <ele>1033.8828125</ele>
      </trkpt>
      <trkpt lat="47.99482" lon="6.98906">
        <ele>1037.65625</ele>
      </trkpt>
      <trkpt lat="47.99513" lon="6.98891">
        <ele>1048.2421875</ele>
      </trkpt>
      <trkpt lat="47.99571" lon="6.989">
        <ele>1056.640625</ele>
      </trkpt>
      <trkpt lat="47.99613" lon="6.98914">
        <ele>1060.35546875</ele>
      </trkpt>
      <trkpt lat="47.99644" lon="6.98916">
        <ele>1063.17578125</ele>
      </trkpt>
      <trkpt lat="47.99656" lon="6.98895">
        <ele>1070.23046875</ele>
      </trkpt>
      <trkpt lat="47.99655" lon="6.98876">
        <ele>1075.71484375</ele>
      </trkpt>
      <trkpt lat="47.9964" lon="6.98864">
        <ele>1077.69921875</ele>
      </trkpt>
      <trkpt lat="47.99604" lon="6.98843">
        <ele>1078.9375</ele>
      </trkpt>
      <trkpt lat="47.99558" lon="6.98767">
        <ele>1093.75</ele>
      </trkpt>
      <trkpt lat="47.99546" lon="6.98754">
        <ele>1095.421875</ele>
      </trkpt>
      <trkpt lat="47.99518" lon="6.98663">
        <ele>1117.8125</ele>
      </trkpt>
      <trkpt lat="47.99487" lon="6.98612">
        <ele>1130.296875</ele>
      </trkpt>
      <trkpt lat="47.99428" lon="6.98585">
        <ele>1130.45703125</ele>
      </trkpt>
      <trkpt lat="47.99371" lon="6.98572">
        <ele>1128.9453125</ele>
      </trkpt>
      <trkpt lat="47.99324" lon="6.98582">
        <ele>1118.88671875</ele>
      </trkpt>
      <trkpt lat="47.99284" lon="6.98517">
        <ele>1121.32421875</ele>
      </trkpt>
      <trkpt lat="47.99243" lon="6.9848">
        <ele>1123.73828125</ele>
      </trkpt>
      <trkpt lat="47.99202" lon="6.98463">
        <ele>1128.15234375</ele>
      </trkpt>
      <trkpt lat="47.99166" lon="6.98441">
        <ele>1138.3203125</ele>
      </trkpt>
      <trkpt lat="47.99131" lon="6.98442">
        <ele>1143.90625</ele>
      </trkpt>
      <trkpt lat="47.99093" lon="6.98452">
        <ele>1153.19921875</ele>
      </trkpt>
      <trkpt lat="47.99064" lon="6.98479">
        <ele>1154.21484375</ele>
      </trkpt>
      <trkpt lat="47.99057" lon="6.98486">
        <ele>1154.484375</ele>
      </trkpt>
      <trkpt lat="47.99028" lon="6.98507">
        <ele>1154.59375</ele>
      </trkpt>
      <trkpt lat="47.99008" lon="6.98516">
        <ele>1153.87890625</ele>
      </trkpt>
      <trkpt lat="47.98983" lon="6.98504">
        <ele>1157.984375</ele>
      </trkpt>
      <trkpt lat="47.98956" lon="6.98498">
        <ele>1156.02734375</ele>
      </trkpt>
      <trkpt lat="47.98926" lon="6.98466">
        <ele>1161.828125</ele>
      </trkpt>
      <trkpt lat="47.98897" lon="6.98439">
        <ele>1167.375</ele>
      </trkpt>
      <trkpt lat="47.98826" lon="6.98383">
        <ele>1179.82421875</ele>
      </trkpt>
      <trkpt lat="47.9877" lon="6.98355">
        <ele>1183.84375</ele>
      </trkpt>
      <trkpt lat="47.98708" lon="6.98327">
        <ele>1190.05859375</ele>
      </trkpt>
      <trkpt lat="47.98642" lon="6.98304">
        <ele>1199.015625</ele>
      </trkpt>
      <trkpt lat="47.98599" lon="6.98294">
        <ele>1205.015625</ele>
      </trkpt>
      <trkpt lat="47.98489" lon="6.98278">
        <ele>1215.34765625</ele>
      </trkpt>
      <trkpt lat="47.98466" lon="6.98272">
        <ele>1217.61328125</ele>
      </trkpt>
      <trkpt lat="47.98432" lon="6.98238">
        <ele>1222.203125</ele>
      </trkpt>
      <trkpt lat="47.98417" lon="6.98223">
        <ele>1222.73828125</ele>
      </trkpt>
      <trkpt lat="47.98412" lon="6.98199">
        <ele>1221.88671875</ele>
      </trkpt>
      <trkpt lat="47.98447" lon="6.98172">
        <ele>1221.046875</ele>
      </trkpt>
      <trkpt lat="47.98488" lon="6.9811">
        <ele>1221.703125</ele>
      </trkpt>
      <trkpt lat="47.98514" lon="6.98068">
        <ele>1223.28125</ele>
      </trkpt>
      <trkpt lat="47.98541" lon="6.98036">
        <ele>1224.94140625</ele>
      </trkpt>
      <trkpt lat="47.98609" lon="6.9802">
        <ele>1229.19140625</ele>
      </trkpt>
      <trkpt lat="47.98655" lon="6.9801">
        <ele>1230.48046875</ele>
      </trkpt>
      <trkpt lat="47.98677" lon="6.98005">
        <ele>1231.109375</ele>
      </trkpt>
      <trkpt lat="47.98713" lon="6.98004">
        <ele>1232.36328125</ele>
      </trkpt>
      <trkpt lat="47.98736" lon="6.97979">
        <ele>1233.4765625</ele>
      </trkpt>
      <trkpt lat="47.98783" lon="6.97975">
        <ele>1236.77734375</ele>
      </trkpt>
      <trkpt lat="47.98824" lon="6.9798">
        <ele>1239.98828125</ele>
      </trkpt>
      <trkpt lat="47.98851" lon="6.97995">
        <ele>1244.875</ele>
      </trkpt>
      <trkpt lat="47.98889" lon="6.98008">
        <ele>1246.84765625</ele>
      </trkpt>
      <trkpt lat="47.98919" lon="6.9801">
        <ele>1245.62109375</ele>
      </trkpt>
      <trkpt lat="47.98969" lon="6.98018">
        <ele>1244.26953125</ele>
      </trkpt>
      <trkpt lat="47.99011" lon="6.98024">
        <ele>1241.828125</ele>
      </trkpt>
      <trkpt lat="47.99051" lon="6.98022">
        <ele>1243.0390625</ele>
      </trkpt>
      <trkpt lat="47.99093" lon="6.98008">
        <ele>1244.01953125</ele>
      </trkpt>
      <trkpt lat="47.99128" lon="6.97987">
        <ele>1244.1796875</ele>
      </trkpt>
      <trkpt lat="47.99177" lon="6.97945">
        <ele>1240.87109375</ele>
      </trkpt>
      <trkpt lat="47.99264" lon="6.97901">
        <ele>1243.30078125</ele>
      </trkpt>
      <trkpt lat="47.99353" lon="6.97872">
        <ele>1248.08984375</ele>
      </trkpt>
      <trkpt lat="47.99392" lon="6.97848">
        <ele>1244.67578125</ele>
      </trkpt>
      <trkpt lat="47.99447" lon="6.97845">
        <ele>1248.82421875</ele>
      </trkpt>
      <trkpt lat="47.99525" lon="6.97853">
        <ele>1251.88671875</ele>
      </trkpt>
      <trkpt lat="47.99592" lon="6.97858">
        <ele>1250.2890625</ele>
      </trkpt>
      <trkpt lat="47.9965" lon="6.97857">
        <ele>1249.8125</ele>
      </trkpt>
      <trkpt lat="47.99709" lon="6.97854">
        <ele>1252.96484375</ele>
      </trkpt>
      <trkpt lat="47.99764" lon="6.97845">
        <ele>1256.890625</ele>
      </trkpt>
      <trkpt lat="47.9982" lon="6.97795">
        <ele>1252.796875</ele>
      </trkpt>
      <trkpt lat="47.99855" lon="6.97738">
        <ele>1248.7265625</ele>
      </trkpt>
      <trkpt lat="47.99878" lon="6.97706">
        <ele>1251.83203125</ele>
      </trkpt>
      <trkpt lat="47.99902" lon="6.97691">
        <ele>1256.296875</ele>
      </trkpt>
      <trkpt lat="47.99921" lon="6.97674">
        <ele>1256.96484375</ele>
      </trkpt>
      <trkpt lat="47.99953" lon="6.97674">
        <ele>1260.87109375</ele>
      </trkpt>
      <trkpt lat="47.99993" lon="6.97691">
        <ele>1264.9453125</ele>
      </trkpt>
      <trkpt lat="48.00045" lon="6.97721">
        <ele>1261.93359375</ele>
      </trkpt>
      <trkpt lat="48.00094" lon="6.97721">
        <ele>1252.33203125</ele>
      </trkpt>
      <trkpt lat="48.00171" lon="6.97742">
        <ele>1244.76171875</ele>
      </trkpt>
      <trkpt lat="48.00235" lon="6.97756">
        <ele>1240.921875</ele>
      </trkpt>
      <trkpt lat="48.00275" lon="6.97758">
        <ele>1235.55859375</ele>
      </trkpt>
      <trkpt lat="48.00291" lon="6.97768">
        <ele>1234.22265625</ele>
      </trkpt>
      <trkpt lat="48.00336" lon="6.97843">
        <ele>1233.390625</ele>
      </trkpt>
      <trkpt lat="48.00412" lon="6.9799">
        <ele>1224.2734375</ele>
      </trkpt>
      <trkpt lat="48.00483" lon="6.98004">
        <ele>1210.23046875</ele>
      </trkpt>
      <trkpt lat="48.00543" lon="6.97998">
        <ele>1205.6328125</ele>
      </trkpt>
      <trkpt lat="48.00597" lon="6.97984">
        <ele>1205.97265625</ele>
      </trkpt>
      <trkpt lat="48.0067" lon="6.97908">
        <ele>1209.26171875</ele>
      </trkpt>
      <trkpt lat="48.0071" lon="6.97846">
        <ele>1210.45703125</ele>
      </trkpt>
      <trkpt lat="48.00741" lon="6.97782">
        <ele>1210.8984375</ele>
      </trkpt>
      <trkpt lat="48.00772" lon="6.97714">
        <ele>1210.9609375</ele>
      </trkpt>
      <trkpt lat="48.00812" lon="6.97661">
        <ele>1217.8125</ele>
      </trkpt>
      <trkpt lat="48.00839" lon="6.9762">
        <ele>1219.5703125</ele>
      </trkpt>
      <trkpt lat="48.00872" lon="6.97597">
        <ele>1225.23046875</ele>
      </trkpt>
      <trkpt lat="48.00901" lon="6.97598">
        <ele>1229.59765625</ele>
      </trkpt>
      <trkpt lat="48.0093" lon="6.97613">
        <ele>1233.72265625</ele>
      </trkpt>
      <trkpt lat="48.00947" lon="6.97644">
        <ele>1234.953125</ele>
      </trkpt>
      <trkpt lat="48.00957" lon="6.97665">
        <ele>1235.87109375</ele>
      </trkpt>
      <trkpt lat="48.00965" lon="6.97705">
        <ele>1241.515625</ele>
      </trkpt>
      <trkpt lat="48.00983" lon="6.97754">
        <ele>1244.55078125</ele>
      </trkpt>
      <trkpt lat="48.00998" lon="6.97791">
        <ele>1245.578125</ele>
      </trkpt>
      <trkpt lat="48.01018" lon="6.97853">
        <ele>1247.48828125</ele>
      </trkpt>
      <trkpt lat="48.01034" lon="6.97898">
        <ele>1247.23046875</ele>
      </trkpt>
      <trkpt lat="48.01039" lon="6.97915">
        <ele>1248.0546875</ele>
      </trkpt>
      <trkpt lat="48.01047" lon="6.97945">
        <ele>1250.9453125</ele>
      </trkpt>
      <trkpt lat="48.01059" lon="6.97962">
        <ele>1248.83984375</ele>
      </trkpt>
      <trkpt lat="48.01074" lon="6.97977">
        <ele>1244.58203125</ele>
      </trkpt>
      <trkpt lat="48.01095" lon="6.98016">
        <ele>1245.5546875</ele>
      </trkpt>
      <trkpt lat="48.01126" lon="6.98076">
        <ele>1244.3984375</ele>
      </trkpt>
      <trkpt lat="48.01176" lon="6.98172">
        <ele>1236.08984375</ele>
      </trkpt>
      <trkpt lat="48.01204" lon="6.98232">
        <ele>1232.6328125</ele>
      </trkpt>
      <trkpt lat="48.01225" lon="6.98291">
        <ele>1230.17578125</ele>
      </trkpt>
      <trkpt lat="48.01252" lon="6.98329">
        <ele>1223.515625</ele>
      </trkpt>
      <trkpt lat="48.01271" lon="6.98357">
        <ele>1221.1328125</ele>
      </trkpt>
      <trkpt lat="48.01299" lon="6.98393">
        <ele>1218.3984375</ele>
      </trkpt>
      <trkpt lat="48.01317" lon="6.98402">
        <ele>1214.94140625</ele>
      </trkpt>
      <trkpt lat="48.01342" lon="6.98417">
        <ele>1210.83203125</ele>
      </trkpt>
      <trkpt lat="48.0136" lon="6.98443">
        <ele>1209.515625</ele>
      </trkpt>
      <trkpt lat="48.01375" lon="6.98463">
        <ele>1207.9296875</ele>
      </trkpt>
      <trkpt lat="48.01388" lon="6.98477">
        <ele>1206.41796875</ele>
      </trkpt>
      <trkpt lat="48.01415" lon="6.98497">
        <ele>1202.87109375</ele>
      </trkpt>
      <trkpt lat="48.01439" lon="6.98516">
        <ele>1199.30078125</ele>
      </trkpt>
      <trkpt lat="48.01459" lon="6.98535">
        <ele>1195.6328125</ele>
      </trkpt>
      <trkpt lat="48.0148" lon="6.98554">
        <ele>1193.13671875</ele>
      </trkpt>
      <trkpt lat="48.0149" lon="6.98566">
        <ele>1192.0625</ele>
      </trkpt>
      <trkpt lat="48.01541" lon="6.98598">
        <ele>1190.32421875</ele>
      </trkpt>
      <trkpt lat="48.01573" lon="6.98611">
        <ele>1192.2265625</ele>
      </trkpt>
      <trkpt lat="48.01592" lon="6.98622">
        <ele>1194.265625</ele>
      </trkpt>
      <trkpt lat="48.01608" lon="6.9863">
        <ele>1196.39453125</ele>
      </trkpt>
      <trkpt lat="48.0158" lon="6.98591">
        <ele>1191.26953125</ele>
      </trkpt>
      <trkpt lat="48.01538" lon="6.98566">
        <ele>1189.6171875</ele>
      </trkpt>
      <trkpt lat="48.01517" lon="6.98558">
        <ele>1190.515625</ele>
      </trkpt>
      <trkpt lat="48.01507" lon="6.98557">
        <ele>1191.046875</ele>
      </trkpt>
      <trkpt lat="48.01476" lon="6.98508">
        <ele>1192.05078125</ele>
      </trkpt>
      <trkpt lat="48.0147" lon="6.98496">
        <ele>1191.578125</ele>
      </trkpt>
      <trkpt lat="48.01463" lon="6.98478">
        <ele>1190.2421875</ele>
      </trkpt>
      <trkpt lat="48.01454" lon="6.9846">
        <ele>1189.38671875</ele>
      </trkpt>
      <trkpt lat="48.01462" lon="6.98455">
        <ele>1186.86328125</ele>
      </trkpt>
      <trkpt lat="48.01469" lon="6.98452">
        <ele>1184.609375</ele>
      </trkpt>
      <trkpt lat="48.01469" lon="6.98442">
        <ele>1182.734375</ele>
      </trkpt>
      <trkpt lat="48.01479" lon="6.98436">
        <ele>1178.6796875</ele>
      </trkpt>
      <trkpt lat="48.01483" lon="6.98433">
        <ele>1176.5</ele>
      </trkpt>
      <trkpt lat="48.01522" lon="6.98449">
        <ele>1170.20703125</ele>
      </trkpt>
      <trkpt lat="48.01529" lon="6.98436">
        <ele>1164.23828125</ele>
      </trkpt>
      <trkpt lat="48.01524" lon="6.98407">
        <ele>1157.13671875</ele>
      </trkpt>
      <trkpt lat="48.01504" lon="6.98366">
        <ele>1150.4453125</ele>
      </trkpt>
      <trkpt lat="48.01488" lon="6.98334">
        <ele>1146</ele>
      </trkpt>
      <trkpt lat="48.01479" lon="6.98325">
        <ele>1145.90625</ele>
      </trkpt>
      <trkpt lat="48.01467" lon="6.98277">
        <ele>1133.78125</ele>
      </trkpt>
      <trkpt lat="48.01469" lon="6.98271">
        <ele>1130.3203125</ele>
      </trkpt>
      <trkpt lat="48.0147" lon="6.9827">
        <ele>1129.9140625</ele>
      </trkpt>
      <trkpt lat="48.01475" lon="6.98245">
        <ele>1118.6171875</ele>
      </trkpt>
      <trkpt lat="48.01494" lon="6.98234">
        <ele>1105.921875</ele>
      </trkpt>
      <trkpt lat="48.01504" lon="6.98247">
        <ele>1107.296875</ele>
      </trkpt>
      <trkpt lat="48.01515" lon="6.98246">
        <ele>1102.546875</ele>
      </trkpt>
      <trkpt lat="48.01488" lon="6.98205">
        <ele>1097.98046875</ele>
      </trkpt>
      <trkpt lat="48.01441" lon="6.98156">
        <ele>1102.046875</ele>
      </trkpt>
      <trkpt lat="48.01411" lon="6.98119">
        <ele>1102.28515625</ele>
      </trkpt>
      <trkpt lat="48.01344" lon="6.98011">
        <ele>1099.84375</ele>
      </trkpt>
      <trkpt lat="48.01325" lon="6.97949">
        <ele>1092.203125</ele>
      </trkpt>
      <trkpt lat="48.01313" lon="6.97863">
        <ele>1077.6796875</ele>
      </trkpt>
      <trkpt lat="48.0129" lon="6.97768">
        <ele>1073.05859375</ele>
      </trkpt>
      <trkpt lat="48.01279" lon="6.97683">
        <ele>1074.30078125</ele>
      </trkpt>
      <trkpt lat="48.01347" lon="6.97734">
        <ele>1055.421875</ele>
      </trkpt>
      <trkpt lat="48.01349" lon="6.97767">
        <ele>1055.0703125</ele>
      </trkpt>
      <trkpt lat="48.01349" lon="6.97805">
        <ele>1057.76171875</ele>
      </trkpt>
      <trkpt lat="48.01369" lon="6.9785">
        <ele>1054.92578125</ele>
      </trkpt>
      <trkpt lat="48.01407" lon="6.97903">
        <ele>1050.6171875</ele>
      </trkpt>
      <trkpt lat="48.01436" lon="6.97905">
        <ele>1040.49609375</ele>
      </trkpt>
      <trkpt lat="48.0145" lon="6.97939">
        <ele>1039.3046875</ele>
      </trkpt>
      <trkpt lat="48.01473" lon="6.97955">
        <ele>1031.48046875</ele>
      </trkpt>
      <trkpt lat="48.01475" lon="6.97962">
        <ele>1031.16796875</ele>
      </trkpt>
      <trkpt lat="48.01512" lon="6.97986">
        <ele>1019.80078125</ele>
      </trkpt>
      <trkpt lat="48.01523" lon="6.97981">
        <ele>1015.59765625</ele>
      </trkpt>
      <trkpt lat="48.0155" lon="6.97981">
        <ele>1007.12890625</ele>
      </trkpt>
      <trkpt lat="48.01558" lon="6.97976">
        <ele>1005.6328125</ele>
      </trkpt>
      <trkpt lat="48.01565" lon="6.97981">
        <ele>1004.61328125</ele>
      </trkpt>
      <trkpt lat="48.01572" lon="6.98">
        <ele>1003.71484375</ele>
      </trkpt>
      <trkpt lat="48.01592" lon="6.98">
        <ele>1001.1953125</ele>
      </trkpt>
      <trkpt lat="48.01624" lon="6.98019">
        <ele>998.4765625</ele>
      </trkpt>
      <trkpt lat="48.01654" lon="6.98004">
        <ele>997.515625</ele>
      </trkpt>
      <trkpt lat="48.01664" lon="6.97991">
        <ele>996.99609375</ele>
      </trkpt>
      <trkpt lat="48.01658" lon="6.97985">
        <ele>996.99609375</ele>
      </trkpt>
      <trkpt lat="48.01688" lon="6.97945">
        <ele>995.31640625</ele>
      </trkpt>
      <trkpt lat="48.01703" lon="6.97947">
        <ele>995.15234375</ele>
      </trkpt>
      <trkpt lat="48.01716" lon="6.97957">
        <ele>994.9765625</ele>
      </trkpt>
      <trkpt lat="48.01747" lon="6.97957">
        <ele>994.75390625</ele>
      </trkpt>
      <trkpt lat="48.0178" lon="6.97913">
        <ele>994</ele>
      </trkpt>
      <trkpt lat="48.01796" lon="6.97868">
        <ele>994</ele>
      </trkpt>
      <trkpt lat="48.0181" lon="6.97827">
        <ele>994</ele>
      </trkpt>
      <trkpt lat="48.01821" lon="6.97804">
        <ele>994</ele>
      </trkpt>
      <trkpt lat="48.01861" lon="6.97742">
        <ele>994</ele>
      </trkpt>
      <trkpt lat="48.01877" lon="6.97705">
        <ele>994</ele>
      </trkpt>
      <trkpt lat="48.01881" lon="6.97671">
        <ele>994.05078125</ele>
      </trkpt>
      <trkpt lat="48.01866" lon="6.97587">
        <ele>992.9609375</ele>
      </trkpt>
      <trkpt lat="48.01873" lon="6.97549">
        <ele>991.3359375</ele>
      </trkpt>
      <trkpt lat="48.01902" lon="6.97514">
        <ele>987.359375</ele>
      </trkpt>
      <trkpt lat="48.01915" lon="6.97497">
        <ele>985.96484375</ele>
      </trkpt>
      <trkpt lat="48.01923" lon="6.97452">
        <ele>983.1953125</ele>
      </trkpt>
      <trkpt lat="48.01951" lon="6.97418">
        <ele>982.3984375</ele>
      </trkpt>
      <trkpt lat="48.01959" lon="6.97374">
        <ele>981.78515625</ele>
      </trkpt>
      <trkpt lat="48.01965" lon="6.97344">
        <ele>981.34375</ele>
      </trkpt>
      <trkpt lat="48.01974" lon="6.97222">
        <ele>976.88671875</ele>
      </trkpt>
      <trkpt lat="48.01969" lon="6.97211">
        <ele>974.58984375</ele>
      </trkpt>
      <trkpt lat="48.01951" lon="6.97206">
        <ele>974.17578125</ele>
      </trkpt>
      <trkpt lat="48.01945" lon="6.9719">
        <ele>972.52734375</ele>
      </trkpt>
      <trkpt lat="48.01957" lon="6.97187">
        <ele>970.73828125</ele>
      </trkpt>
      <trkpt lat="48.01969" lon="6.97151">
        <ele>966.23046875</ele>
      </trkpt>
      <trkpt lat="48.01971" lon="6.97101">
        <ele>959.30078125</ele>
      </trkpt>
      <trkpt lat="48.01989" lon="6.97066">
        <ele>957.6328125</ele>
      </trkpt>
      <trkpt lat="48.01988" lon="6.97036">
        <ele>953.8828125</ele>
      </trkpt>
      <trkpt lat="48.01994" lon="6.96997">
        <ele>949.390625</ele>
      </trkpt>
      <trkpt lat="48.01998" lon="6.96982">
        <ele>948.3515625</ele>
      </trkpt>
      <trkpt lat="48.02007" lon="6.96857">
        <ele>934.96875</ele>
      </trkpt>
      <trkpt lat="48.02025" lon="6.96767">
        <ele>924.15234375</ele>
      </trkpt>
      <trkpt lat="48.02031" lon="6.96737">
        <ele>922.3203125</ele>
      </trkpt>
      <trkpt lat="48.0203" lon="6.96716">
        <ele>920.515625</ele>
      </trkpt>
      <trkpt lat="48.0207" lon="6.96658">
        <ele>913.1484375</ele>
      </trkpt>
      <trkpt lat="48.02113" lon="6.96612">
        <ele>904.33984375</ele>
      </trkpt>
      <trkpt lat="48.02158" lon="6.96575">
        <ele>895.80859375</ele>
      </trkpt>
      <trkpt lat="48.0218" lon="6.96569">
        <ele>894.30078125</ele>
      </trkpt>
      <trkpt lat="48.02218" lon="6.96513">
        <ele>883.34375</ele>
      </trkpt>
      <trkpt lat="48.02224" lon="6.96507">
        <ele>882.74609375</ele>
      </trkpt>
      <trkpt lat="48.02215" lon="6.9647">
        <ele>879.34375</ele>
      </trkpt>
      <trkpt lat="48.0223" lon="6.96434">
        <ele>879.390625</ele>
      </trkpt>
      <trkpt lat="48.02237" lon="6.9643">
        <ele>878.98046875</ele>
      </trkpt>
      <trkpt lat="48.02272" lon="6.96362">
        <ele>884.98046875</ele>
      </trkpt>
      <trkpt lat="48.023" lon="6.96339">
        <ele>884.671875</ele>
      </trkpt>
      <trkpt lat="48.02308" lon="6.96319">
        <ele>887.23828125</ele>
      </trkpt>
      <trkpt lat="48.02334" lon="6.96304">
        <ele>882.33984375</ele>
      </trkpt>
      <trkpt lat="48.0236" lon="6.96258">
        <ele>880.23828125</ele>
      </trkpt>
      <trkpt lat="48.02359" lon="6.96246">
        <ele>882.234375</ele>
      </trkpt>
      <trkpt lat="48.02384" lon="6.96182">
        <ele>878.48046875</ele>
      </trkpt>
      <trkpt lat="48.02401" lon="6.96153">
        <ele>872.15625</ele>
      </trkpt>
      <trkpt lat="48.02403" lon="6.9614">
        <ele>871.66796875</ele>
      </trkpt>
      <trkpt lat="48.02403" lon="6.96089">
        <ele>876.01953125</ele>
      </trkpt>
      <trkpt lat="48.02413" lon="6.9607">
        <ele>869.87890625</ele>
      </trkpt>
      <trkpt lat="48.02417" lon="6.96064">
        <ele>866.91796875</ele>
      </trkpt>
      <trkpt lat="48.02419" lon="6.96029">
        <ele>864.3984375</ele>
      </trkpt>
      <trkpt lat="48.02419" lon="6.95986">
        <ele>861.47265625</ele>
      </trkpt>
      <trkpt lat="48.02449" lon="6.95952">
        <ele>844.40234375</ele>
      </trkpt>
      <trkpt lat="48.0247" lon="6.95928">
        <ele>836.90625</ele>
      </trkpt>
      <trkpt lat="48.02483" lon="6.95944">
        <ele>835.65625</ele>
      </trkpt>
      <trkpt lat="48.02521" lon="6.95962">
        <ele>834.875</ele>
      </trkpt>
      <trkpt lat="48.02548" lon="6.95969">
        <ele>836.57421875</ele>
      </trkpt>
      <trkpt lat="48.02583" lon="6.95985">
        <ele>839.9375</ele>
      </trkpt>
      <trkpt lat="48.02618" lon="6.95999">
        <ele>842.15625</ele>
      </trkpt>
      <trkpt lat="48.02787" lon="6.9612">
        <ele>857.3671875</ele>
      </trkpt>
      <trkpt lat="48.02837" lon="6.96154">
        <ele>861.33203125</ele>
      </trkpt>
      <trkpt lat="48.02939" lon="6.96182">
        <ele>861.609375</ele>
      </trkpt>
      <trkpt lat="48.02981" lon="6.96195">
        <ele>865.53125</ele>
      </trkpt>
      <trkpt lat="48.0303" lon="6.96207">
        <ele>869.30078125</ele>
      </trkpt>
      <trkpt lat="48.03063" lon="6.96223">
        <ele>873.44921875</ele>
      </trkpt>
      <trkpt lat="48.03093" lon="6.96238">
        <ele>875.94140625</ele>
      </trkpt>
      <trkpt lat="48.03132" lon="6.96261">
        <ele>877.9921875</ele>
      </trkpt>
      <trkpt lat="48.03155" lon="6.96278">
        <ele>879.76171875</ele>
      </trkpt>
      <trkpt lat="48.03176" lon="6.96283">
        <ele>877.9453125</ele>
      </trkpt>
      <trkpt lat="48.03229" lon="6.96319">
        <ele>880.75390625</ele>
      </trkpt>
      <trkpt lat="48.0328" lon="6.96358">
        <ele>885.61328125</ele>
      </trkpt>
      <trkpt lat="48.03327" lon="6.96389">
        <ele>887.828125</ele>
      </trkpt>
      <trkpt lat="48.03368" lon="6.96434">
        <ele>889.35546875</ele>
      </trkpt>
      <trkpt lat="48.03421" lon="6.96487">
        <ele>888.6015625</ele>
      </trkpt>
      <trkpt lat="48.03454" lon="6.96522">
        <ele>888.47265625</ele>
      </trkpt>
      <trkpt lat="48.03472" lon="6.96543">
        <ele>888.828125</ele>
      </trkpt>
      <trkpt lat="48.03535" lon="6.96663">
        <ele>893.53125</ele>
      </trkpt>
      <trkpt lat="48.03598" lon="6.96789">
        <ele>896.76171875</ele>
      </trkpt>
      <trkpt lat="48.03651" lon="6.96892">
        <ele>899.16015625</ele>
      </trkpt>
      <trkpt lat="48.03668" lon="6.96928">
        <ele>901.26953125</ele>
      </trkpt>
      <trkpt lat="48.03687" lon="6.96927">
        <ele>898.77734375</ele>
      </trkpt>
      <trkpt lat="48.0374" lon="6.97025">
        <ele>902.4296875</ele>
      </trkpt>
      <trkpt lat="48.0381" lon="6.97136">
        <ele>910.65234375</ele>
      </trkpt>
      <trkpt lat="48.03857" lon="6.97194">
        <ele>913.109375</ele>
      </trkpt>
      <trkpt lat="48.03895" lon="6.9724">
        <ele>914.58203125</ele>
      </trkpt>
      <trkpt lat="48.03916" lon="6.97324">
        <ele>919.921875</ele>
      </trkpt>
      <trkpt lat="48.03951" lon="6.97384">
        <ele>925.13671875</ele>
      </trkpt>
      <trkpt lat="48.03981" lon="6.97453">
        <ele>929.49609375</ele>
      </trkpt>
      <trkpt lat="48.0397" lon="6.97492">
        <ele>934.54296875</ele>
      </trkpt>
      <trkpt lat="48.03979" lon="6.97512">
        <ele>937.09375</ele>
      </trkpt>
    </trkseg>
  </trk>
</gpx>